<?xml version="1.0" encoding="UTF-8"?>
<gpx version="1.1" creator="2bulu-scraper" xmlns="http://www.topografix.com/GPX/1/1">
  <metadata><name>屏山县老君山二老君徒步 宜宾叙州区</name><desc>source: 2bulu.com trackId=77569952; exported 2026-08-30T14:30:07.338Z</desc></metadata>
  <wpt lat="28.8532727" lon="104.2667375"><ele>537</ele><name>
        </name></wpt>
  <wpt lat="28.8532075" lon="104.2648821"><ele>591</ele><name>土地庙
        </name></wpt>
  <wpt lat="28.8528341" lon="104.2637483"><ele>613</ele><name>野葱
        </name></wpt>
  <wpt lat="28.8523197" lon="104.2619959"><ele>656</ele><name>
        </name></wpt>
  <wpt lat="28.8501848" lon="104.2585337"><ele>784</ele><name>
        </name></wpt>
  <wpt lat="28.8501009" lon="104.2584938"><ele>787</ele><name>风景点二老君山头
        </name></wpt>
  <wpt lat="28.8500748" lon="104.2584763"><ele>810</ele><name>
        </name></wpt>
  <wpt lat="28.8500384" lon="104.2584178"><ele>788</ele><name>二老君山头
        </name></wpt>
  <wpt lat="28.849884" lon="104.2579803"><ele>804</ele><name>
        </name></wpt>
  <wpt lat="28.8498541" lon="104.2579193"><ele>767</ele><name>土地庙
        </name></wpt>
  <wpt lat="28.846032" lon="104.2487697"><ele>940</ele><name>
        </name></wpt>
  <wpt lat="28.8460484" lon="104.2487564"><ele>972</ele><name>
        </name></wpt>
  <wpt lat="28.8460541" lon="104.2487411"><ele>979</ele><name>
        </name></wpt>
  <wpt lat="28.8459148" lon="104.2486496"><ele>979</ele><name>
        </name></wpt>
  <wpt lat="28.8461665" lon="104.248571"><ele>945</ele><name>老君庙
        </name></wpt>
  <wpt lat="28.8447666" lon="104.2472839"><ele>981</ele><name>很好看的一处基岩
        </name></wpt>
  <wpt lat="28.8412189" lon="104.2442142"><ele>879</ele><name>路程一半
        </name></wpt>
  <wpt lat="28.8379043" lon="104.2502363"><ele>685</ele><name>
        </name></wpt>
  <wpt lat="28.8370464" lon="104.2507749"><ele>666</ele><name>
        </name></wpt>
  <wpt lat="28.8370464" lon="104.2507749"><ele>666</ele><name>
        </name></wpt>
  <wpt lat="28.845982" lon="104.261071"><ele>524</ele><name>
        </name></wpt>
  <wpt lat="28.8465244" lon="104.261212"><ele>489</ele><name>一路向下
        </name></wpt>
  <wpt lat="28.8471274" lon="104.2616422"><ele>466</ele><name>
        </name></wpt>
  <wpt lat="28.8474274" lon="104.2615585"><ele>513</ele><name>
        </name></wpt>
  <wpt lat="28.8474274" lon="104.2615585"><ele>513</ele><name>回头看路很不明显
        </name></wpt>
  <wpt lat="28.848527" lon="104.2685028"><ele>377</ele><name>
        </name></wpt>
  <wpt lat="28.8534491" lon="104.2711823"><ele>412</ele><name>
        </name></wpt>
  <trk><name>屏山县老君山二老君徒步 宜宾叙州区</name>
      <trkseg>
        <trkpt lat="28.8548981" lon="104.2735434"><ele>407.87</ele><time>2026-01-09T20:26:29.000Z</time></trkpt>
        <trkpt lat="28.8548995" lon="104.2734577"><ele>407.87</ele><time>2026-01-09T20:26:47.000Z</time></trkpt>
        <trkpt lat="28.854949" lon="104.2733703"><ele>404.51</ele><time>2026-01-09T20:26:59.000Z</time></trkpt>
        <trkpt lat="28.855003" lon="104.2732615"><ele>401.27</ele><time>2026-01-09T20:27:15.000Z</time></trkpt>
        <trkpt lat="28.8550291" lon="104.2731461"><ele>399.61</ele><time>2026-01-09T20:27:25.000Z</time></trkpt>
        <trkpt lat="28.8550283" lon="104.2730331"><ele>398.77</ele><time>2026-01-09T20:27:37.000Z</time></trkpt>
        <trkpt lat="28.8550142" lon="104.2729194"><ele>398.95</ele><time>2026-01-09T20:27:49.000Z</time></trkpt>
        <trkpt lat="28.8549953" lon="104.272807"><ele>400.16</ele><time>2026-01-09T20:27:59.000Z</time></trkpt>
        <trkpt lat="28.8549591" lon="104.2726931"><ele>404.01</ele><time>2026-01-09T20:28:09.000Z</time></trkpt>
        <trkpt lat="28.8549108" lon="104.2725961"><ele>403.51</ele><time>2026-01-09T20:28:19.000Z</time></trkpt>
        <trkpt lat="28.8548571" lon="104.2725069"><ele>404.9</ele><time>2026-01-09T20:28:27.000Z</time></trkpt>
        <trkpt lat="28.8547777" lon="104.2724566"><ele>404.9</ele><time>2026-01-09T20:28:35.000Z</time></trkpt>
        <trkpt lat="28.8546848" lon="104.272394"><ele>405.32</ele><time>2026-01-09T20:28:45.000Z</time></trkpt>
        <trkpt lat="28.8546408" lon="104.2723049"><ele>405.86</ele><time>2026-01-09T20:28:53.000Z</time></trkpt>
        <trkpt lat="28.8546086" lon="104.2721989"><ele>406.59</ele><time>2026-01-09T20:29:03.000Z</time></trkpt>
        <trkpt lat="28.8546075" lon="104.2720909"><ele>407.46</ele><time>2026-01-09T20:29:17.000Z</time></trkpt>
        <trkpt lat="28.8546268" lon="104.2719774"><ele>407.8</ele><time>2026-01-09T20:29:27.000Z</time></trkpt>
        <trkpt lat="28.8546503" lon="104.2718713"><ele>408.38</ele><time>2026-01-09T20:29:39.000Z</time></trkpt>
        <trkpt lat="28.8546731" lon="104.2717591"><ele>408.63</ele><time>2026-01-09T20:29:53.000Z</time></trkpt>
        <trkpt lat="28.8546998" lon="104.2716556"><ele>409.61</ele><time>2026-01-09T20:30:03.000Z</time></trkpt>
        <trkpt lat="28.8547248" lon="104.2715549"><ele>411.27</ele><time>2026-01-09T20:30:13.000Z</time></trkpt>
        <trkpt lat="28.8547561" lon="104.2714401"><ele>413.39</ele><time>2026-01-09T20:30:25.000Z</time></trkpt>
        <trkpt lat="28.854788" lon="104.2713183"><ele>415.35</ele><time>2026-01-09T20:30:35.000Z</time></trkpt>
        <trkpt lat="28.854793" lon="104.2711916"><ele>417.36</ele><time>2026-01-09T20:30:45.000Z</time></trkpt>
        <trkpt lat="28.8547863" lon="104.2710798"><ele>418.9</ele><time>2026-01-09T20:30:55.000Z</time></trkpt>
        <trkpt lat="28.8547741" lon="104.2709748"><ele>421.53</ele><time>2026-01-09T20:31:09.000Z</time></trkpt>
        <trkpt lat="28.8547174" lon="104.2708952"><ele>424.35</ele><time>2026-01-09T20:31:25.000Z</time></trkpt>
        <trkpt lat="28.8546265" lon="104.2708408"><ele>427.7</ele><time>2026-01-09T20:31:39.000Z</time></trkpt>
        <trkpt lat="28.8545296" lon="104.2708039"><ele>430.21</ele><time>2026-01-09T20:31:51.000Z</time></trkpt>
        <trkpt lat="28.8544223" lon="104.2707912"><ele>432.26</ele><time>2026-01-09T20:32:07.000Z</time></trkpt>
        <trkpt lat="28.8543152" lon="104.2707949"><ele>434.66</ele><time>2026-01-09T20:32:19.000Z</time></trkpt>
        <trkpt lat="28.8542121" lon="104.2707653"><ele>437.45</ele><time>2026-01-09T20:32:33.000Z</time></trkpt>
        <trkpt lat="28.8541408" lon="104.2706944"><ele>440.12</ele><time>2026-01-09T20:32:45.000Z</time></trkpt>
        <trkpt lat="28.8540586" lon="104.2706494"><ele>442.76</ele><time>2026-01-09T20:33:05.000Z</time></trkpt>
        <trkpt lat="28.8539835" lon="104.2705767"><ele>445.79</ele><time>2026-01-09T20:33:21.000Z</time></trkpt>
        <trkpt lat="28.8539164" lon="104.2705016"><ele>448.25</ele><time>2026-01-09T20:33:31.000Z</time></trkpt>
        <trkpt lat="28.8538604" lon="104.270402"><ele>449.68</ele><time>2026-01-09T20:33:43.000Z</time></trkpt>
        <trkpt lat="28.8538382" lon="104.2702861"><ele>451.06</ele><time>2026-01-09T20:34:01.000Z</time></trkpt>
        <trkpt lat="28.8538328" lon="104.2701638"><ele>452.21</ele><time>2026-01-09T20:34:13.000Z</time></trkpt>
        <trkpt lat="28.8538387" lon="104.2700412"><ele>454.01</ele><time>2026-01-09T20:34:23.000Z</time></trkpt>
        <trkpt lat="28.8537915" lon="104.2699542"><ele>455.63</ele><time>2026-01-09T20:34:33.000Z</time></trkpt>
        <trkpt lat="28.8537199" lon="104.2698884"><ele>457.27</ele><time>2026-01-09T20:34:45.000Z</time></trkpt>
        <trkpt lat="28.8536642" lon="104.2698016"><ele>459.3</ele><time>2026-01-09T20:34:57.000Z</time></trkpt>
        <trkpt lat="28.8536109" lon="104.2697143"><ele>460.53</ele><time>2026-01-09T20:35:07.000Z</time></trkpt>
        <trkpt lat="28.8535572" lon="104.2696199"><ele>461.35</ele><time>2026-01-09T20:35:17.000Z</time></trkpt>
        <trkpt lat="28.8535113" lon="104.2695137"><ele>461.83</ele><time>2026-01-09T20:35:27.000Z</time></trkpt>
        <trkpt lat="28.8534926" lon="104.2693932"><ele>462.58</ele><time>2026-01-09T20:35:39.000Z</time></trkpt>
        <trkpt lat="28.8535058" lon="104.2692718"><ele>463.27</ele><time>2026-01-09T20:35:49.000Z</time></trkpt>
        <trkpt lat="28.8534767" lon="104.2691749"><ele>465.16</ele><time>2026-01-09T20:36:01.000Z</time></trkpt>
        <trkpt lat="28.8534965" lon="104.2690695"><ele>467.64</ele><time>2026-01-09T20:36:13.000Z</time></trkpt>
        <trkpt lat="28.8535725" lon="104.2690814"><ele>469.89</ele><time>2026-01-09T20:36:23.000Z</time></trkpt>
        <trkpt lat="28.8536367" lon="104.2691648"><ele>471.89</ele><time>2026-01-09T20:36:31.000Z</time></trkpt>
        <trkpt lat="28.8536814" lon="104.269278"><ele>473.82</ele><time>2026-01-09T20:36:45.000Z</time></trkpt>
        <trkpt lat="28.8537279" lon="104.2693859"><ele>476.57</ele><time>2026-01-09T20:36:55.000Z</time></trkpt>
        <trkpt lat="28.8538226" lon="104.2694364"><ele>478.75</ele><time>2026-01-09T20:37:07.000Z</time></trkpt>
        <trkpt lat="28.8539186" lon="104.2694593"><ele>480.34</ele><time>2026-01-09T20:37:21.000Z</time></trkpt>
        <trkpt lat="28.8539492" lon="104.2693686"><ele>483.75</ele><time>2026-01-09T20:37:35.000Z</time></trkpt>
        <trkpt lat="28.8539314" lon="104.2692444"><ele>487.59</ele><time>2026-01-09T20:37:47.000Z</time></trkpt>
        <trkpt lat="28.8539265" lon="104.2691155"><ele>490.46</ele><time>2026-01-09T20:37:59.000Z</time></trkpt>
        <trkpt lat="28.8539429" lon="104.2689939"><ele>492.81</ele><time>2026-01-09T20:38:09.000Z</time></trkpt>
        <trkpt lat="28.8539802" lon="104.2688777"><ele>493.9</ele><time>2026-01-09T20:38:19.000Z</time></trkpt>
        <trkpt lat="28.8539962" lon="104.2687657"><ele>494.6</ele><time>2026-01-09T20:38:29.000Z</time></trkpt>
        <trkpt lat="28.8540015" lon="104.2686594"><ele>495.77</ele><time>2026-01-09T20:38:39.000Z</time></trkpt>
        <trkpt lat="28.8540005" lon="104.2685486"><ele>497.31</ele><time>2026-01-09T20:38:49.000Z</time></trkpt>
        <trkpt lat="28.854032" lon="104.268444"><ele>499.25</ele><time>2026-01-09T20:39:03.000Z</time></trkpt>
        <trkpt lat="28.8541056" lon="104.2683797"><ele>501.74</ele><time>2026-01-09T20:39:13.000Z</time></trkpt>
        <trkpt lat="28.8542044" lon="104.2683416"><ele>504.15</ele><time>2026-01-09T20:39:25.000Z</time></trkpt>
        <trkpt lat="28.8542905" lon="104.2682821"><ele>505.93</ele><time>2026-01-09T20:39:41.000Z</time></trkpt>
        <trkpt lat="28.8542682" lon="104.2681948"><ele>508.29</ele><time>2026-01-09T20:39:55.000Z</time></trkpt>
        <trkpt lat="28.8541518" lon="104.2681788"><ele>509.79</ele><time>2026-01-09T20:39:59.000Z</time></trkpt>
        <trkpt lat="28.8541343" lon="104.268442"><ele>510.75</ele><time>2026-01-09T20:40:07.000Z</time></trkpt>
        <trkpt lat="28.8541806" lon="104.2684281"><ele>512.27</ele><time>2026-01-09T20:40:13.000Z</time></trkpt>
        <trkpt lat="28.8541997" lon="104.2683855"><ele>513.08</ele><time>2026-01-09T20:40:17.000Z</time></trkpt>
        <trkpt lat="28.8542719" lon="104.268331"><ele>513.05</ele><time>2026-01-09T20:40:41.000Z</time></trkpt>
        <trkpt lat="28.8543314" lon="104.2682398"><ele>512.94</ele><time>2026-01-09T20:40:51.000Z</time></trkpt>
        <trkpt lat="28.8543595" lon="104.2681249"><ele>512.81</ele><time>2026-01-09T20:41:07.000Z</time></trkpt>
        <trkpt lat="28.854299" lon="104.2680524"><ele>513.4</ele><time>2026-01-09T20:41:19.000Z</time></trkpt>
        <trkpt lat="28.8541988" lon="104.2680133"><ele>513.51</ele><time>2026-01-09T20:41:29.000Z</time></trkpt>
        <trkpt lat="28.8540923" lon="104.2679976"><ele>514.07</ele><time>2026-01-09T20:41:39.000Z</time></trkpt>
        <trkpt lat="28.8539889" lon="104.2679707"><ele>515.44</ele><time>2026-01-09T20:41:49.000Z</time></trkpt>
        <trkpt lat="28.8538801" lon="104.2679459"><ele>517.41</ele><time>2026-01-09T20:42:05.000Z</time></trkpt>
        <trkpt lat="28.8537897" lon="104.2679068"><ele>519.69</ele><time>2026-01-09T20:42:13.000Z</time></trkpt>
        <trkpt lat="28.8537142" lon="104.2678266"><ele>521.26</ele><time>2026-01-09T20:42:23.000Z</time></trkpt>
        <trkpt lat="28.8536615" lon="104.2677324"><ele>522.74</ele><time>2026-01-09T20:42:39.000Z</time></trkpt>
        <trkpt lat="28.8535927" lon="104.2676512"><ele>523.6</ele><time>2026-01-09T20:42:51.000Z</time></trkpt>
        <trkpt lat="28.8535571" lon="104.2675425"><ele>524.74</ele><time>2026-01-09T20:43:03.000Z</time></trkpt>
        <trkpt lat="28.8535251" lon="104.2674281"><ele>526.19</ele><time>2026-01-09T20:43:13.000Z</time></trkpt>
        <trkpt lat="28.8534807" lon="104.2673259"><ele>527.9</ele><time>2026-01-09T20:43:25.000Z</time></trkpt>
        <trkpt lat="28.8534308" lon="104.267229"><ele>529.12</ele><time>2026-01-09T20:43:35.000Z</time></trkpt>
        <trkpt lat="28.853382" lon="104.267136"><ele>530.71</ele><time>2026-01-09T20:43:45.000Z</time></trkpt>
        <trkpt lat="28.8533255" lon="104.2670439"><ele>531.41</ele><time>2026-01-09T20:43:55.000Z</time></trkpt>
        <trkpt lat="28.8532806" lon="104.2669475"><ele>532.27</ele><time>2026-01-09T20:44:05.000Z</time></trkpt>
        <trkpt lat="28.8532347" lon="104.2668391"><ele>533.47</ele><time>2026-01-09T20:44:13.000Z</time></trkpt>
        <trkpt lat="28.8532727" lon="104.2667375"><ele>534.76</ele><time>2026-01-09T20:45:01.000Z</time></trkpt>
        <trkpt lat="28.8532719" lon="104.2666368"><ele>537.69</ele><time>2026-01-09T20:45:23.000Z</time></trkpt>
        <trkpt lat="28.8532809" lon="104.2665207"><ele>540.87</ele><time>2026-01-09T20:46:47.000Z</time></trkpt>
        <trkpt lat="28.8532837" lon="104.2664151"><ele>543.86</ele><time>2026-01-09T20:47:01.000Z</time></trkpt>
        <trkpt lat="28.8532629" lon="104.2663037"><ele>547.05</ele><time>2026-01-09T20:47:21.000Z</time></trkpt>
        <trkpt lat="28.8532579" lon="104.2661959"><ele>550.96</ele><time>2026-01-09T20:47:47.000Z</time></trkpt>
        <trkpt lat="28.8532626" lon="104.2660905"><ele>554.44</ele><time>2026-01-09T20:48:05.000Z</time></trkpt>
        <trkpt lat="28.8532712" lon="104.2659868"><ele>558.05</ele><time>2026-01-09T20:48:25.000Z</time></trkpt>
        <trkpt lat="28.8532758" lon="104.2658725"><ele>561.3</ele><time>2026-01-09T20:48:45.000Z</time></trkpt>
        <trkpt lat="28.8532843" lon="104.2657583"><ele>564.25</ele><time>2026-01-09T20:48:59.000Z</time></trkpt>
        <trkpt lat="28.8532888" lon="104.2656415"><ele>567.33</ele><time>2026-01-09T20:49:27.000Z</time></trkpt>
        <trkpt lat="28.8532726" lon="104.265535"><ele>570.26</ele><time>2026-01-09T20:49:39.000Z</time></trkpt>
        <trkpt lat="28.8532793" lon="104.2654211"><ele>573.5</ele><time>2026-01-09T20:50:01.000Z</time></trkpt>
        <trkpt lat="28.8532796" lon="104.2653058"><ele>577.55</ele><time>2026-01-09T20:50:21.000Z</time></trkpt>
        <trkpt lat="28.8532891" lon="104.2651944"><ele>581.66</ele><time>2026-01-09T20:50:35.000Z</time></trkpt>
        <trkpt lat="28.8532822" lon="104.2650823"><ele>584.67</ele><time>2026-01-09T20:50:51.000Z</time></trkpt>
        <trkpt lat="28.8532526" lon="104.2649836"><ele>587.27</ele><time>2026-01-09T20:51:01.000Z</time></trkpt>
        <trkpt lat="28.8532075" lon="104.2648821"><ele>588.85</ele><time>2026-01-09T20:51:21.000Z</time></trkpt>
        <trkpt lat="28.8531565" lon="104.2647911"><ele>589.78</ele><time>2026-01-09T20:51:31.000Z</time></trkpt>
        <trkpt lat="28.8531256" lon="104.2646808"><ele>589.89</ele><time>2026-01-09T20:52:03.000Z</time></trkpt>
        <trkpt lat="28.8530783" lon="104.2645847"><ele>590.62</ele><time>2026-01-09T20:52:33.000Z</time></trkpt>
        <trkpt lat="28.8530603" lon="104.2644835"><ele>592.6</ele><time>2026-01-09T20:52:47.000Z</time></trkpt>
        <trkpt lat="28.853061" lon="104.2643786"><ele>594.93</ele><time>2026-01-09T20:53:07.000Z</time></trkpt>
        <trkpt lat="28.8530471" lon="104.2642673"><ele>598.16</ele><time>2026-01-09T20:53:23.000Z</time></trkpt>
        <trkpt lat="28.8529799" lon="104.2641952"><ele>600.94</ele><time>2026-01-09T20:53:31.000Z</time></trkpt>
        <trkpt lat="28.8529147" lon="104.2641149"><ele>603.11</ele><time>2026-01-09T20:53:45.000Z</time></trkpt>
        <trkpt lat="28.8528993" lon="104.2640843"><ele>605.05</ele><time>2026-01-09T20:53:53.000Z</time></trkpt>
        <trkpt lat="28.8529035" lon="104.2639988"><ele>606.42</ele><time>2026-01-09T20:55:05.000Z</time></trkpt>
        <trkpt lat="28.8529034" lon="104.2638918"><ele>605.95</ele><time>2026-01-09T20:55:21.000Z</time></trkpt>
        <trkpt lat="28.8528637" lon="104.2637892"><ele>606.97</ele><time>2026-01-09T20:56:05.000Z</time></trkpt>
        <trkpt lat="28.8528341" lon="104.2637483"><ele>609.38</ele><time>2026-01-09T20:56:19.000Z</time></trkpt>
        <trkpt lat="28.8528398" lon="104.2636632"><ele>611.24</ele><time>2026-01-09T20:56:31.000Z</time></trkpt>
        <trkpt lat="28.8529099" lon="104.2636075"><ele>612.21</ele><time>2026-01-09T20:56:47.000Z</time></trkpt>
        <trkpt lat="28.8529505" lon="104.2635189"><ele>612.16</ele><time>2026-01-09T20:56:59.000Z</time></trkpt>
        <trkpt lat="28.8529304" lon="104.263424"><ele>613.15</ele><time>2026-01-09T20:57:11.000Z</time></trkpt>
        <trkpt lat="28.852857" lon="104.263367"><ele>614.28</ele><time>2026-01-09T20:57:19.000Z</time></trkpt>
        <trkpt lat="28.8527808" lon="104.2632957"><ele>615.19</ele><time>2026-01-09T20:57:31.000Z</time></trkpt>
        <trkpt lat="28.8527244" lon="104.2632093"><ele>617.17</ele><time>2026-01-09T20:57:43.000Z</time></trkpt>
        <trkpt lat="28.8526663" lon="104.263113"><ele>618.63</ele><time>2026-01-09T20:57:57.000Z</time></trkpt>
        <trkpt lat="28.852601" lon="104.2630274"><ele>620.31</ele><time>2026-01-09T20:58:11.000Z</time></trkpt>
        <trkpt lat="28.8525484" lon="104.2629356"><ele>622.87</ele><time>2026-01-09T20:58:23.000Z</time></trkpt>
        <trkpt lat="28.8525053" lon="104.2628428"><ele>625.59</ele><time>2026-01-09T20:58:35.000Z</time></trkpt>
        <trkpt lat="28.85247" lon="104.2627476"><ele>628.45</ele><time>2026-01-09T20:58:53.000Z</time></trkpt>
        <trkpt lat="28.8524407" lon="104.2626467"><ele>631.34</ele><time>2026-01-09T20:59:09.000Z</time></trkpt>
        <trkpt lat="28.8524173" lon="104.2625419"><ele>633.91</ele><time>2026-01-09T20:59:29.000Z</time></trkpt>
        <trkpt lat="28.8524006" lon="104.2624342"><ele>637.02</ele><time>2026-01-09T20:59:41.000Z</time></trkpt>
        <trkpt lat="28.8523921" lon="104.2623262"><ele>639.07</ele><time>2026-01-09T20:59:59.000Z</time></trkpt>
        <trkpt lat="28.8523804" lon="104.2622092"><ele>641.59</ele><time>2026-01-09T21:00:17.000Z</time></trkpt>
        <trkpt lat="28.852346" lon="104.2621018"><ele>644.4</ele><time>2026-01-09T21:00:39.000Z</time></trkpt>
        <trkpt lat="28.8523197" lon="104.2619959"><ele>648.01</ele><time>2026-01-09T21:01:09.000Z</time></trkpt>
        <trkpt lat="28.8522661" lon="104.2619123"><ele>651.09</ele><time>2026-01-09T21:01:25.000Z</time></trkpt>
        <trkpt lat="28.8522092" lon="104.2618188"><ele>654.16</ele><time>2026-01-09T21:01:45.000Z</time></trkpt>
        <trkpt lat="28.852144" lon="104.2617247"><ele>656.41</ele><time>2026-01-09T21:01:59.000Z</time></trkpt>
        <trkpt lat="28.852091" lon="104.2616272"><ele>658.68</ele><time>2026-01-09T21:02:15.000Z</time></trkpt>
        <trkpt lat="28.8520449" lon="104.2615354"><ele>661.73</ele><time>2026-01-09T21:02:43.000Z</time></trkpt>
        <trkpt lat="28.8519798" lon="104.2614529"><ele>665.03</ele><time>2026-01-09T21:02:59.000Z</time></trkpt>
        <trkpt lat="28.8518945" lon="104.2614174"><ele>667.03</ele><time>2026-01-09T21:03:41.000Z</time></trkpt>
        <trkpt lat="28.8517945" lon="104.2613888"><ele>668.98</ele><time>2026-01-09T21:03:59.000Z</time></trkpt>
        <trkpt lat="28.8517022" lon="104.2613498"><ele>671.31</ele><time>2026-01-09T21:04:25.000Z</time></trkpt>
        <trkpt lat="28.8516072" lon="104.2613327"><ele>673.88</ele><time>2026-01-09T21:04:51.000Z</time></trkpt>
        <trkpt lat="28.851511" lon="104.2613098"><ele>676.88</ele><time>2026-01-09T21:05:13.000Z</time></trkpt>
        <trkpt lat="28.8514216" lon="104.2612753"><ele>681.36</ele><time>2026-01-09T21:05:35.000Z</time></trkpt>
        <trkpt lat="28.8513233" lon="104.2612395"><ele>686.52</ele><time>2026-01-09T21:05:59.000Z</time></trkpt>
        <trkpt lat="28.8512875" lon="104.2612216"><ele>690.8</ele><time>2026-01-09T21:06:03.000Z</time></trkpt>
        <trkpt lat="28.8512186" lon="104.2611869"><ele>693.36</ele><time>2026-01-09T21:06:27.000Z</time></trkpt>
        <trkpt lat="28.8511326" lon="104.2611484"><ele>695.68</ele><time>2026-01-09T21:06:51.000Z</time></trkpt>
        <trkpt lat="28.851066" lon="104.2610727"><ele>698.9</ele><time>2026-01-09T21:07:19.000Z</time></trkpt>
        <trkpt lat="28.8509915" lon="104.2610008"><ele>702.08</ele><time>2026-01-09T21:07:41.000Z</time></trkpt>
        <trkpt lat="28.8509219" lon="104.2609258"><ele>705.16</ele><time>2026-01-09T21:07:59.000Z</time></trkpt>
        <trkpt lat="28.8508418" lon="104.2608575"><ele>708.95</ele><time>2026-01-09T21:08:25.000Z</time></trkpt>
        <trkpt lat="28.8507937" lon="104.2607629"><ele>713.05</ele><time>2026-01-09T21:08:43.000Z</time></trkpt>
        <trkpt lat="28.8507486" lon="104.26067"><ele>716.6</ele><time>2026-01-09T21:09:31.000Z</time></trkpt>
        <trkpt lat="28.8507325" lon="104.2605668"><ele>720.79</ele><time>2026-01-09T21:09:49.000Z</time></trkpt>
        <trkpt lat="28.8507219" lon="104.2604612"><ele>724.49</ele><time>2026-01-09T21:10:03.000Z</time></trkpt>
        <trkpt lat="28.8507123" lon="104.2603566"><ele>727.61</ele><time>2026-01-09T21:10:17.000Z</time></trkpt>
        <trkpt lat="28.8507266" lon="104.2603313"><ele>730.19</ele><time>2026-01-09T21:10:29.000Z</time></trkpt>
        <trkpt lat="28.8506809" lon="104.2602651"><ele>732.18</ele><time>2026-01-09T21:10:57.000Z</time></trkpt>
        <trkpt lat="28.8506391" lon="104.2601724"><ele>733.56</ele><time>2026-01-09T21:11:17.000Z</time></trkpt>
        <trkpt lat="28.8506096" lon="104.2600693"><ele>734.79</ele><time>2026-01-09T21:11:45.000Z</time></trkpt>
        <trkpt lat="28.8506191" lon="104.2599655"><ele>735.29</ele><time>2026-01-09T21:12:01.000Z</time></trkpt>
        <trkpt lat="28.8506506" lon="104.2598626"><ele>734.92</ele><time>2026-01-09T21:12:11.000Z</time></trkpt>
        <trkpt lat="28.8507081" lon="104.2597586"><ele>734.18</ele><time>2026-01-09T21:12:21.000Z</time></trkpt>
        <trkpt lat="28.8507741" lon="104.2596683"><ele>733.32</ele><time>2026-01-09T21:12:31.000Z</time></trkpt>
        <trkpt lat="28.8508278" lon="104.2595718"><ele>732.29</ele><time>2026-01-09T21:12:41.000Z</time></trkpt>
        <trkpt lat="28.8508934" lon="104.2594966"><ele>731.71</ele><time>2026-01-09T21:12:55.000Z</time></trkpt>
        <trkpt lat="28.8509874" lon="104.2594943"><ele>731.21</ele><time>2026-01-09T21:13:33.000Z</time></trkpt>
        <trkpt lat="28.851087" lon="104.259479"><ele>732.23</ele><time>2026-01-09T21:13:45.000Z</time></trkpt>
        <trkpt lat="28.85114" lon="104.2594071"><ele>733.3</ele><time>2026-01-09T21:13:55.000Z</time></trkpt>
        <trkpt lat="28.8511648" lon="104.2593092"><ele>735.46</ele><time>2026-01-09T21:14:07.000Z</time></trkpt>
        <trkpt lat="28.8512056" lon="104.2592137"><ele>737.53</ele><time>2026-01-09T21:14:17.000Z</time></trkpt>
        <trkpt lat="28.8512655" lon="104.2591178"><ele>739.52</ele><time>2026-01-09T21:14:31.000Z</time></trkpt>
        <trkpt lat="28.8513531" lon="104.2590565"><ele>741.37</ele><time>2026-01-09T21:14:45.000Z</time></trkpt>
        <trkpt lat="28.8514121" lon="104.2589761"><ele>743.76</ele><time>2026-01-09T21:14:57.000Z</time></trkpt>
        <trkpt lat="28.8514292" lon="104.2588681"><ele>745.47</ele><time>2026-01-09T21:15:09.000Z</time></trkpt>
        <trkpt lat="28.8514294" lon="104.2587532"><ele>747.03</ele><time>2026-01-09T21:15:21.000Z</time></trkpt>
        <trkpt lat="28.8514417" lon="104.2586426"><ele>749.08</ele><time>2026-01-09T21:15:33.000Z</time></trkpt>
        <trkpt lat="28.851435" lon="104.2585348"><ele>750.25</ele><time>2026-01-09T21:15:49.000Z</time></trkpt>
        <trkpt lat="28.8513722" lon="104.2585554"><ele>751.06</ele><time>2026-01-09T21:16:01.000Z</time></trkpt>
        <trkpt lat="28.8512939" lon="104.2586343"><ele>751.77</ele><time>2026-01-09T21:16:13.000Z</time></trkpt>
        <trkpt lat="28.8512118" lon="104.2587186"><ele>753.45</ele><time>2026-01-09T21:16:31.000Z</time></trkpt>
        <trkpt lat="28.8511274" lon="104.2587839"><ele>756.08</ele><time>2026-01-09T21:16:49.000Z</time></trkpt>
        <trkpt lat="28.8510423" lon="104.2588408"><ele>757.52</ele><time>2026-01-09T21:17:03.000Z</time></trkpt>
        <trkpt lat="28.8509501" lon="104.2588804"><ele>759.02</ele><time>2026-01-09T21:17:17.000Z</time></trkpt>
        <trkpt lat="28.8508558" lon="104.2588776"><ele>760.42</ele><time>2026-01-09T21:17:37.000Z</time></trkpt>
        <trkpt lat="28.8507646" lon="104.2588492"><ele>762.48</ele><time>2026-01-09T21:17:59.000Z</time></trkpt>
        <trkpt lat="28.8506716" lon="104.2588453"><ele>764.71</ele><time>2026-01-09T21:18:19.000Z</time></trkpt>
        <trkpt lat="28.8505736" lon="104.2588081"><ele>766.39</ele><time>2026-01-09T21:18:35.000Z</time></trkpt>
        <trkpt lat="28.8504913" lon="104.2587506"><ele>768.96</ele><time>2026-01-09T21:18:55.000Z</time></trkpt>
        <trkpt lat="28.8504053" lon="104.258715"><ele>771.28</ele><time>2026-01-09T21:19:19.000Z</time></trkpt>
        <trkpt lat="28.8503355" lon="104.2586498"><ele>773.5</ele><time>2026-01-09T21:19:43.000Z</time></trkpt>
        <trkpt lat="28.8502606" lon="104.2585903"><ele>776.57</ele><time>2026-01-09T21:20:05.000Z</time></trkpt>
        <trkpt lat="28.8501848" lon="104.2585337"><ele>779.18</ele><time>2026-01-09T21:20:35.000Z</time></trkpt>
        <trkpt lat="28.8501009" lon="104.2584938"><ele>781.56</ele><time>2026-01-09T21:20:53.000Z</time></trkpt>
        <trkpt lat="28.8500384" lon="104.2584178"><ele>783.83</ele><time>2026-01-09T21:23:05.000Z</time></trkpt>
        <trkpt lat="28.8499829" lon="104.2583288"><ele>785.75</ele><time>2026-01-09T21:24:03.000Z</time></trkpt>
        <trkpt lat="28.8499339" lon="104.2582395"><ele>786.17</ele><time>2026-01-09T21:24:33.000Z</time></trkpt>
        <trkpt lat="28.8498793" lon="104.2581416"><ele>782.66</ele><time>2026-01-09T21:25:49.000Z</time></trkpt>
        <trkpt lat="28.8499667" lon="104.2580797"><ele>780.14</ele><time>2026-01-09T21:26:01.000Z</time></trkpt>
        <trkpt lat="28.8499333" lon="104.2580013"><ele>777.37</ele><time>2026-01-09T21:26:21.000Z</time></trkpt>
        <trkpt lat="28.8498541" lon="104.2579193"><ele>774.78</ele><time>2026-01-09T21:27:59.000Z</time></trkpt>
        <trkpt lat="28.8498555" lon="104.257803"><ele>770.79</ele><time>2026-01-09T21:28:27.000Z</time></trkpt>
        <trkpt lat="28.8498158" lon="104.2577009"><ele>766.57</ele><time>2026-01-09T21:28:43.000Z</time></trkpt>
        <trkpt lat="28.8497663" lon="104.2575981"><ele>762.79</ele><time>2026-01-09T21:29:01.000Z</time></trkpt>
        <trkpt lat="28.8497336" lon="104.2574934"><ele>758.98</ele><time>2026-01-09T21:29:09.000Z</time></trkpt>
        <trkpt lat="28.8496834" lon="104.2573794"><ele>756.8</ele><time>2026-01-09T21:29:19.000Z</time></trkpt>
        <trkpt lat="28.849643" lon="104.2572781"><ele>757.1</ele><time>2026-01-09T21:29:31.000Z</time></trkpt>
        <trkpt lat="28.8495825" lon="104.257186"><ele>757.12</ele><time>2026-01-09T21:29:41.000Z</time></trkpt>
        <trkpt lat="28.8495105" lon="104.2571134"><ele>756.1</ele><time>2026-01-09T21:31:01.000Z</time></trkpt>
        <trkpt lat="28.8494394" lon="104.2570465"><ele>754.3</ele><time>2026-01-09T21:31:11.000Z</time></trkpt>
        <trkpt lat="28.8493835" lon="104.2569622"><ele>752.99</ele><time>2026-01-09T21:31:23.000Z</time></trkpt>
        <trkpt lat="28.8493289" lon="104.2568765"><ele>751.88</ele><time>2026-01-09T21:31:35.000Z</time></trkpt>
        <trkpt lat="28.8492937" lon="104.2567763"><ele>752.07</ele><time>2026-01-09T21:31:49.000Z</time></trkpt>
        <trkpt lat="28.8492849" lon="104.2566603"><ele>752.28</ele><time>2026-01-09T21:32:03.000Z</time></trkpt>
        <trkpt lat="28.8492887" lon="104.2565497"><ele>752.49</ele><time>2026-01-09T21:32:17.000Z</time></trkpt>
        <trkpt lat="28.8492816" lon="104.2564417"><ele>753.51</ele><time>2026-01-09T21:32:29.000Z</time></trkpt>
        <trkpt lat="28.8492698" lon="104.2563309"><ele>754.66</ele><time>2026-01-09T21:32:47.000Z</time></trkpt>
        <trkpt lat="28.8492863" lon="104.2562287"><ele>755.64</ele><time>2026-01-09T21:33:09.000Z</time></trkpt>
        <trkpt lat="28.8492875" lon="104.256127"><ele>756.21</ele><time>2026-01-09T21:33:27.000Z</time></trkpt>
        <trkpt lat="28.849266" lon="104.2560155"><ele>758.35</ele><time>2026-01-09T21:33:41.000Z</time></trkpt>
        <trkpt lat="28.8492026" lon="104.2559206"><ele>760.76</ele><time>2026-01-09T21:33:52.000Z</time></trkpt>
        <trkpt lat="28.8491476" lon="104.2558205"><ele>762.53</ele><time>2026-01-09T21:34:31.000Z</time></trkpt>
        <trkpt lat="28.8491502" lon="104.2557164"><ele>764.08</ele><time>2026-01-09T21:34:47.000Z</time></trkpt>
        <trkpt lat="28.8491847" lon="104.2556125"><ele>765.59</ele><time>2026-01-09T21:35:15.000Z</time></trkpt>
        <trkpt lat="28.8492004" lon="104.2555084"><ele>767.14</ele><time>2026-01-09T21:35:41.000Z</time></trkpt>
        <trkpt lat="28.8491579" lon="104.2554137"><ele>769.09</ele><time>2026-01-09T21:36:11.000Z</time></trkpt>
        <trkpt lat="28.8491285" lon="104.2553069"><ele>771.55</ele><time>2026-01-09T21:36:25.000Z</time></trkpt>
        <trkpt lat="28.84909" lon="104.2552035"><ele>775.4</ele><time>2026-01-09T21:36:37.000Z</time></trkpt>
        <trkpt lat="28.84904" lon="104.2551108"><ele>776.91</ele><time>2026-01-09T21:36:49.000Z</time></trkpt>
        <trkpt lat="28.8489937" lon="104.2550194"><ele>778.33</ele><time>2026-01-09T21:37:05.000Z</time></trkpt>
        <trkpt lat="28.848938" lon="104.2549207"><ele>779.75</ele><time>2026-01-09T21:37:29.000Z</time></trkpt>
        <trkpt lat="28.8488865" lon="104.2548275"><ele>781.74</ele><time>2026-01-09T21:37:53.000Z</time></trkpt>
        <trkpt lat="28.8488501" lon="104.2547307"><ele>783.89</ele><time>2026-01-09T21:38:15.000Z</time></trkpt>
        <trkpt lat="28.8488098" lon="104.2546295"><ele>786.22</ele><time>2026-01-09T21:38:33.000Z</time></trkpt>
        <trkpt lat="28.8487968" lon="104.2545239"><ele>788.98</ele><time>2026-01-09T21:38:47.000Z</time></trkpt>
        <trkpt lat="28.8487636" lon="104.2544198"><ele>791.74</ele><time>2026-01-09T21:39:03.000Z</time></trkpt>
        <trkpt lat="28.8487109" lon="104.2543081"><ele>794.21</ele><time>2026-01-09T21:39:23.000Z</time></trkpt>
        <trkpt lat="28.8486697" lon="104.2542069"><ele>796.05</ele><time>2026-01-09T21:39:33.000Z</time></trkpt>
        <trkpt lat="28.8486196" lon="104.254111"><ele>796.19</ele><time>2026-01-09T21:39:45.000Z</time></trkpt>
        <trkpt lat="28.8485791" lon="104.2540078"><ele>796.69</ele><time>2026-01-09T21:40:01.000Z</time></trkpt>
        <trkpt lat="28.848571" lon="104.253896"><ele>796.66</ele><time>2026-01-09T21:40:19.000Z</time></trkpt>
        <trkpt lat="28.8485744" lon="104.2537814"><ele>796.92</ele><time>2026-01-09T21:40:31.000Z</time></trkpt>
        <trkpt lat="28.8485749" lon="104.2536631"><ele>797.71</ele><time>2026-01-09T21:40:43.000Z</time></trkpt>
        <trkpt lat="28.8485201" lon="104.2535842"><ele>798.85</ele><time>2026-01-09T21:40:55.000Z</time></trkpt>
        <trkpt lat="28.8484367" lon="104.2535199"><ele>799.79</ele><time>2026-01-09T21:41:05.000Z</time></trkpt>
        <trkpt lat="28.8483518" lon="104.2534597"><ele>802.81</ele><time>2026-01-09T21:41:19.000Z</time></trkpt>
        <trkpt lat="28.8482758" lon="104.2533873"><ele>803.76</ele><time>2026-01-09T21:42:23.000Z</time></trkpt>
        <trkpt lat="28.8482625" lon="104.2532857"><ele>803.15</ele><time>2026-01-09T21:42:39.000Z</time></trkpt>
        <trkpt lat="28.8482173" lon="104.2531986"><ele>803.11</ele><time>2026-01-09T21:42:51.000Z</time></trkpt>
        <trkpt lat="28.8481595" lon="104.2531001"><ele>802.67</ele><time>2026-01-09T21:43:25.000Z</time></trkpt>
        <trkpt lat="28.848125" lon="104.2529918"><ele>802.87</ele><time>2026-01-09T21:43:47.000Z</time></trkpt>
        <trkpt lat="28.8480706" lon="104.2528942"><ele>802.91</ele><time>2026-01-09T21:44:25.000Z</time></trkpt>
        <trkpt lat="28.848006" lon="104.2528137"><ele>803.84</ele><time>2026-01-09T21:44:45.000Z</time></trkpt>
        <trkpt lat="28.8479635" lon="104.252713"><ele>805.67</ele><time>2026-01-09T21:45:07.000Z</time></trkpt>
        <trkpt lat="28.8479147" lon="104.2526142"><ele>809.31</ele><time>2026-01-09T21:45:25.000Z</time></trkpt>
        <trkpt lat="28.8478805" lon="104.2525079"><ele>813.28</ele><time>2026-01-09T21:45:43.000Z</time></trkpt>
        <trkpt lat="28.8478511" lon="104.2524048"><ele>816.43</ele><time>2026-01-09T21:45:59.000Z</time></trkpt>
        <trkpt lat="28.8478247" lon="104.2522966"><ele>818.35</ele><time>2026-01-09T21:46:15.000Z</time></trkpt>
        <trkpt lat="28.8477917" lon="104.2521911"><ele>820.9</ele><time>2026-01-09T21:46:37.000Z</time></trkpt>
        <trkpt lat="28.8477761" lon="104.2520879"><ele>824.03</ele><time>2026-01-09T21:46:53.000Z</time></trkpt>
        <trkpt lat="28.8477667" lon="104.2519851"><ele>826.63</ele><time>2026-01-09T21:47:15.000Z</time></trkpt>
        <trkpt lat="28.847727" lon="104.2518877"><ele>829.75</ele><time>2026-01-09T21:47:29.000Z</time></trkpt>
        <trkpt lat="28.8476789" lon="104.251794"><ele>832.93</ele><time>2026-01-09T21:47:53.000Z</time></trkpt>
        <trkpt lat="28.847639" lon="104.2516912"><ele>835.25</ele><time>2026-01-09T21:48:11.000Z</time></trkpt>
        <trkpt lat="28.8476129" lon="104.2515857"><ele>838.85</ele><time>2026-01-09T21:48:29.000Z</time></trkpt>
        <trkpt lat="28.8475681" lon="104.2514768"><ele>842.49</ele><time>2026-01-09T21:48:45.000Z</time></trkpt>
        <trkpt lat="28.8475359" lon="104.2513657"><ele>846</ele><time>2026-01-09T21:48:57.000Z</time></trkpt>
        <trkpt lat="28.8475522" lon="104.2512642"><ele>848.66</ele><time>2026-01-09T21:49:13.000Z</time></trkpt>
        <trkpt lat="28.8475446" lon="104.2511641"><ele>851.67</ele><time>2026-01-09T21:49:37.000Z</time></trkpt>
        <trkpt lat="28.847523" lon="104.2510556"><ele>855.53</ele><time>2026-01-09T21:50:05.000Z</time></trkpt>
        <trkpt lat="28.8475404" lon="104.2509487"><ele>858.81</ele><time>2026-01-09T21:50:33.000Z</time></trkpt>
        <trkpt lat="28.8474839" lon="104.2508854"><ele>861.51</ele><time>2026-01-09T21:51:03.000Z</time></trkpt>
        <trkpt lat="28.8474077" lon="104.2508295"><ele>867.43</ele><time>2026-01-09T21:51:25.000Z</time></trkpt>
        <trkpt lat="28.847324" lon="104.2507647"><ele>870.6</ele><time>2026-01-09T21:51:37.000Z</time></trkpt>
        <trkpt lat="28.8472576" lon="104.2506887"><ele>872.61</ele><time>2026-01-09T21:51:49.000Z</time></trkpt>
        <trkpt lat="28.8471867" lon="104.2506033"><ele>873.69</ele><time>2026-01-09T21:52:05.000Z</time></trkpt>
        <trkpt lat="28.8471105" lon="104.2505297"><ele>874.74</ele><time>2026-01-09T21:52:17.000Z</time></trkpt>
        <trkpt lat="28.8470466" lon="104.2504498"><ele>875.9</ele><time>2026-01-09T21:52:35.000Z</time></trkpt>
        <trkpt lat="28.8469806" lon="104.2503727"><ele>877.23</ele><time>2026-01-09T21:52:55.000Z</time></trkpt>
        <trkpt lat="28.8469292" lon="104.2502823"><ele>878.46</ele><time>2026-01-09T21:53:37.000Z</time></trkpt>
        <trkpt lat="28.8468826" lon="104.2503312"><ele>880.75</ele><time>2026-01-09T21:53:55.000Z</time></trkpt>
        <trkpt lat="28.8469121" lon="104.2502613"><ele>882.35</ele><time>2026-01-09T21:54:01.000Z</time></trkpt>
        <trkpt lat="28.8468635" lon="104.2502744"><ele>883.04</ele><time>2026-01-09T21:54:08.000Z</time></trkpt>
        <trkpt lat="28.8468451" lon="104.2501781"><ele>883.48</ele><time>2026-01-09T21:54:14.000Z</time></trkpt>
        <trkpt lat="28.8467837" lon="104.2500955"><ele>885.55</ele><time>2026-01-09T21:54:44.000Z</time></trkpt>
        <trkpt lat="28.8467502" lon="104.2499871"><ele>889.56</ele><time>2026-01-09T21:54:57.000Z</time></trkpt>
        <trkpt lat="28.8466888" lon="104.2499008"><ele>892.69</ele><time>2026-01-09T21:55:49.000Z</time></trkpt>
        <trkpt lat="28.846627" lon="104.2498209"><ele>897.59</ele><time>2026-01-09T21:56:07.000Z</time></trkpt>
        <trkpt lat="28.8465684" lon="104.2497263"><ele>900.41</ele><time>2026-01-09T21:56:11.000Z</time></trkpt>
        <trkpt lat="28.8466357" lon="104.2496301"><ele>902.12</ele><time>2026-01-09T21:56:19.000Z</time></trkpt>
        <trkpt lat="28.8466094" lon="104.2496798"><ele>903.38</ele><time>2026-01-09T21:56:23.000Z</time></trkpt>
        <trkpt lat="28.8464846" lon="104.2496523"><ele>904.14</ele><time>2026-01-09T21:56:45.000Z</time></trkpt>
        <trkpt lat="28.8463863" lon="104.2497221"><ele>904.84</ele><time>2026-01-09T21:56:49.000Z</time></trkpt>
        <trkpt lat="28.8463649" lon="104.2498813"><ele>905.24</ele><time>2026-01-09T21:56:57.000Z</time></trkpt>
        <trkpt lat="28.8464478" lon="104.2496775"><ele>904.62</ele><time>2026-01-09T21:57:05.000Z</time></trkpt>
        <trkpt lat="28.8463735" lon="104.2495014"><ele>907.26</ele><time>2026-01-09T21:57:17.000Z</time></trkpt>
        <trkpt lat="28.8463899" lon="104.2493797"><ele>909.97</ele><time>2026-01-09T21:57:23.000Z</time></trkpt>
        <trkpt lat="28.8465127" lon="104.2494586"><ele>916.59</ele><time>2026-01-09T21:57:31.000Z</time></trkpt>
        <trkpt lat="28.8464522" lon="104.2494387"><ele>915.91</ele><time>2026-01-09T21:57:35.000Z</time></trkpt>
        <trkpt lat="28.8463596" lon="104.249406"><ele>916.37</ele><time>2026-01-09T21:57:41.000Z</time></trkpt>
        <trkpt lat="28.8464026" lon="104.2494083"><ele>917.15</ele><time>2026-01-09T21:57:49.000Z</time></trkpt>
        <trkpt lat="28.8464074" lon="104.2493494"><ele>918.73</ele><time>2026-01-09T21:57:59.000Z</time></trkpt>
        <trkpt lat="28.8463433" lon="104.2493101"><ele>920.76</ele><time>2026-01-09T21:58:33.000Z</time></trkpt>
        <trkpt lat="28.8462756" lon="104.249239"><ele>923.97</ele><time>2026-01-09T21:58:55.000Z</time></trkpt>
        <trkpt lat="28.8461533" lon="104.2492023"><ele>926.26</ele><time>2026-01-09T21:59:05.000Z</time></trkpt>
        <trkpt lat="28.8460993" lon="104.2491612"><ele>933.23</ele><time>2026-01-09T21:59:07.000Z</time></trkpt>
        <trkpt lat="28.8461662" lon="104.2491781"><ele>931.64</ele><time>2026-01-09T21:59:11.000Z</time></trkpt>
        <trkpt lat="28.8461143" lon="104.2491848"><ele>931.05</ele><time>2026-01-09T21:59:15.000Z</time></trkpt>
        <trkpt lat="28.8460767" lon="104.2490994"><ele>930.79</ele><time>2026-01-09T21:59:19.000Z</time></trkpt>
        <trkpt lat="28.8460582" lon="104.2490835"><ele>931.17</ele><time>2026-01-09T21:59:25.000Z</time></trkpt>
        <trkpt lat="28.8461224" lon="104.2489794"><ele>931.76</ele><time>2026-01-09T21:59:53.000Z</time></trkpt>
        <trkpt lat="28.8462249" lon="104.2488954"><ele>933.44</ele><time>2026-01-09T21:59:57.000Z</time></trkpt>
        <trkpt lat="28.8463536" lon="104.248831"><ele>934.5</ele><time>2026-01-09T22:00:01.000Z</time></trkpt>
        <trkpt lat="28.846369" lon="104.248979"><ele>935.08</ele><time>2026-01-09T22:00:07.000Z</time></trkpt>
        <trkpt lat="28.8462059" lon="104.2486841"><ele>935.56</ele><time>2026-01-09T22:00:19.000Z</time></trkpt>
        <trkpt lat="28.8460835" lon="104.2487223"><ele>935.57</ele><time>2026-01-09T22:00:23.000Z</time></trkpt>
        <trkpt lat="28.846032" lon="104.2487697"><ele>935.57</ele><time>2026-01-09T22:00:27.000Z</time></trkpt>
        <trkpt lat="28.8460328" lon="104.2486918"><ele>936.73</ele><time>2026-01-09T22:02:23.000Z</time></trkpt>
        <trkpt lat="28.845985" lon="104.2487914"><ele>941.77</ele><time>2026-01-09T22:07:31.000Z</time></trkpt>
        <trkpt lat="28.8459008" lon="104.2487372"><ele>947.82</ele><time>2026-01-09T22:07:53.000Z</time></trkpt>
        <trkpt lat="28.8458718" lon="104.2486422"><ele>949.65</ele><time>2026-01-09T22:08:51.000Z</time></trkpt>
        <trkpt lat="28.8459707" lon="104.2486058"><ele>951.19</ele><time>2026-01-09T22:09:53.000Z</time></trkpt>
        <trkpt lat="28.8459869" lon="104.2488558"><ele>951.76</ele><time>2026-01-09T22:10:29.000Z</time></trkpt>
        <trkpt lat="28.8459541" lon="104.2487101"><ele>951.33</ele><time>2026-01-09T22:10:35.000Z</time></trkpt>
        <trkpt lat="28.8459334" lon="104.2487638"><ele>950.66</ele><time>2026-01-09T22:10:39.000Z</time></trkpt>
        <trkpt lat="28.8459481" lon="104.2487753"><ele>951.65</ele><time>2026-01-09T22:10:59.000Z</time></trkpt>
        <trkpt lat="28.84599" lon="104.2487054"><ele>950.72</ele><time>2026-01-09T22:11:13.000Z</time></trkpt>
        <trkpt lat="28.8459793" lon="104.2487724"><ele>949.41</ele><time>2026-01-09T22:27:09.000Z</time></trkpt>
        <trkpt lat="28.8458909" lon="104.2487433"><ele>950.55</ele><time>2026-01-09T22:27:27.000Z</time></trkpt>
        <trkpt lat="28.8459134" lon="104.2486611"><ele>951.55</ele><time>2026-01-09T22:27:41.000Z</time></trkpt>
        <trkpt lat="28.8458615" lon="104.2485995"><ele>951.7</ele><time>2026-01-09T22:28:17.000Z</time></trkpt>
        <trkpt lat="28.8457834" lon="104.2485348"><ele>952.38</ele><time>2026-01-09T22:32:43.000Z</time></trkpt>
        <trkpt lat="28.8458753" lon="104.2485592"><ele>956.68</ele><time>2026-01-09T22:37:05.000Z</time></trkpt>
        <trkpt lat="28.8459336" lon="104.2486498"><ele>957.15</ele><time>2026-01-09T22:37:33.000Z</time></trkpt>
        <trkpt lat="28.8459225" lon="104.2487495"><ele>956.52</ele><time>2026-01-09T22:37:53.000Z</time></trkpt>
        <trkpt lat="28.8459882" lon="104.2487493"><ele>954.62</ele><time>2026-01-09T22:38:05.000Z</time></trkpt>
        <trkpt lat="28.8460969" lon="104.2487434"><ele>952.8</ele><time>2026-01-09T22:47:41.000Z</time></trkpt>
        <trkpt lat="28.8460894" lon="104.2486381"><ele>950.59</ele><time>2026-01-09T22:52:57.000Z</time></trkpt>
        <trkpt lat="28.8461665" lon="104.248571"><ele>948.03</ele><time>2026-01-09T22:53:09.000Z</time></trkpt>
        <trkpt lat="28.8462536" lon="104.2485302"><ele>946.8</ele><time>2026-01-09T22:54:17.000Z</time></trkpt>
        <trkpt lat="28.8461643" lon="104.2485009"><ele>945.92</ele><time>2026-01-09T22:54:41.000Z</time></trkpt>
        <trkpt lat="28.8462146" lon="104.2484412"><ele>945.79</ele><time>2026-01-09T22:55:11.000Z</time></trkpt>
        <trkpt lat="28.8461587" lon="104.2484432"><ele>943.56</ele><time>2026-01-09T22:55:31.000Z</time></trkpt>
        <trkpt lat="28.8460827" lon="104.2483871"><ele>941.41</ele><time>2026-01-09T22:55:53.000Z</time></trkpt>
        <trkpt lat="28.8460124" lon="104.2482969"><ele>938.04</ele><time>2026-01-09T22:56:23.000Z</time></trkpt>
        <trkpt lat="28.8459819" lon="104.2481761"><ele>935.17</ele><time>2026-01-09T22:56:39.000Z</time></trkpt>
        <trkpt lat="28.8459772" lon="104.2480608"><ele>932.48</ele><time>2026-01-09T22:56:45.000Z</time></trkpt>
        <trkpt lat="28.8459167" lon="104.2479677"><ele>931.45</ele><time>2026-01-09T22:56:57.000Z</time></trkpt>
        <trkpt lat="28.8458454" lon="104.2478782"><ele>931.74</ele><time>2026-01-09T22:57:09.000Z</time></trkpt>
        <trkpt lat="28.8457753" lon="104.247794"><ele>932.98</ele><time>2026-01-09T22:57:25.000Z</time></trkpt>
        <trkpt lat="28.8457022" lon="104.2477198"><ele>934.29</ele><time>2026-01-09T22:57:37.000Z</time></trkpt>
        <trkpt lat="28.8456161" lon="104.2476886"><ele>934.72</ele><time>2026-01-09T22:57:49.000Z</time></trkpt>
        <trkpt lat="28.8455222" lon="104.247671"><ele>934.75</ele><time>2026-01-09T22:57:59.000Z</time></trkpt>
        <trkpt lat="28.8454129" lon="104.2476586"><ele>934.24</ele><time>2026-01-09T22:58:09.000Z</time></trkpt>
        <trkpt lat="28.8453157" lon="104.2476186"><ele>933.95</ele><time>2026-01-09T22:58:19.000Z</time></trkpt>
        <trkpt lat="28.8452385" lon="104.24753"><ele>934.88</ele><time>2026-01-09T22:58:35.000Z</time></trkpt>
        <trkpt lat="28.8451498" lon="104.247516"><ele>935.86</ele><time>2026-01-09T22:58:51.000Z</time></trkpt>
        <trkpt lat="28.8450518" lon="104.2474862"><ele>934.06</ele><time>2026-01-09T22:59:03.000Z</time></trkpt>
        <trkpt lat="28.8449589" lon="104.2474615"><ele>933.9</ele><time>2026-01-09T22:59:11.000Z</time></trkpt>
        <trkpt lat="28.844873" lon="104.2474176"><ele>934.59</ele><time>2026-01-09T22:59:23.000Z</time></trkpt>
        <trkpt lat="28.8447962" lon="104.2473519"><ele>936.17</ele><time>2026-01-09T22:59:47.000Z</time></trkpt>
        <trkpt lat="28.8447586" lon="104.2472563"><ele>937.51</ele><time>2026-01-09T22:59:55.000Z</time></trkpt>
        <trkpt lat="28.8447539" lon="104.2473438"><ele>938.11</ele><time>2026-01-09T23:01:03.000Z</time></trkpt>
        <trkpt lat="28.8447357" lon="104.2473858"><ele>936.76</ele><time>2026-01-09T23:01:13.000Z</time></trkpt>
        <trkpt lat="28.8447507" lon="104.2472993"><ele>936.29</ele><time>2026-01-09T23:01:51.000Z</time></trkpt>
        <trkpt lat="28.8447045" lon="104.2472136"><ele>936.81</ele><time>2026-01-09T23:02:05.000Z</time></trkpt>
        <trkpt lat="28.8446182" lon="104.2471371"><ele>937.06</ele><time>2026-01-09T23:02:15.000Z</time></trkpt>
        <trkpt lat="28.844522" lon="104.2470823"><ele>937.49</ele><time>2026-01-09T23:02:39.000Z</time></trkpt>
        <trkpt lat="28.8444176" lon="104.2470704"><ele>937.27</ele><time>2026-01-09T23:02:59.000Z</time></trkpt>
        <trkpt lat="28.8443191" lon="104.247044"><ele>937.14</ele><time>2026-01-09T23:03:19.000Z</time></trkpt>
        <trkpt lat="28.8442302" lon="104.2469997"><ele>936.48</ele><time>2026-01-09T23:03:33.000Z</time></trkpt>
        <trkpt lat="28.8441676" lon="104.2469258"><ele>935.11</ele><time>2026-01-09T23:03:41.000Z</time></trkpt>
        <trkpt lat="28.8441102" lon="104.2468402"><ele>934.03</ele><time>2026-01-09T23:03:53.000Z</time></trkpt>
        <trkpt lat="28.8440994" lon="104.2468087"><ele>933.24</ele><time>2026-01-09T23:03:57.000Z</time></trkpt>
        <trkpt lat="28.8440515" lon="104.2467533"><ele>932.54</ele><time>2026-01-09T23:04:07.000Z</time></trkpt>
        <trkpt lat="28.8439811" lon="104.2466823"><ele>931.02</ele><time>2026-01-09T23:04:21.000Z</time></trkpt>
        <trkpt lat="28.8439012" lon="104.2466211"><ele>929.62</ele><time>2026-01-09T23:04:33.000Z</time></trkpt>
        <trkpt lat="28.8438288" lon="104.2465442"><ele>929.74</ele><time>2026-01-09T23:04:43.000Z</time></trkpt>
        <trkpt lat="28.8437932" lon="104.246441"><ele>928.99</ele><time>2026-01-09T23:04:51.000Z</time></trkpt>
        <trkpt lat="28.8437844" lon="104.246326"><ele>929.1</ele><time>2026-01-09T23:04:59.000Z</time></trkpt>
        <trkpt lat="28.8438093" lon="104.2462146"><ele>929.68</ele><time>2026-01-09T23:05:07.000Z</time></trkpt>
        <trkpt lat="28.8438293" lon="104.2461014"><ele>930.55</ele><time>2026-01-09T23:05:23.000Z</time></trkpt>
        <trkpt lat="28.8438164" lon="104.2459802"><ele>933.84</ele><time>2026-01-09T23:05:33.000Z</time></trkpt>
        <trkpt lat="28.843815" lon="104.2458715"><ele>937.64</ele><time>2026-01-09T23:05:45.000Z</time></trkpt>
        <trkpt lat="28.8437494" lon="104.2457941"><ele>941.62</ele><time>2026-01-09T23:05:57.000Z</time></trkpt>
        <trkpt lat="28.8436602" lon="104.2457575"><ele>944.24</ele><time>2026-01-09T23:06:07.000Z</time></trkpt>
        <trkpt lat="28.8435509" lon="104.2457416"><ele>944.67</ele><time>2026-01-09T23:06:19.000Z</time></trkpt>
        <trkpt lat="28.8434592" lon="104.2457042"><ele>943.21</ele><time>2026-01-09T23:06:29.000Z</time></trkpt>
        <trkpt lat="28.8434007" lon="104.2456213"><ele>940.57</ele><time>2026-01-09T23:06:35.000Z</time></trkpt>
        <trkpt lat="28.8434003" lon="104.2455098"><ele>939.37</ele><time>2026-01-09T23:06:57.000Z</time></trkpt>
        <trkpt lat="28.8433827" lon="104.2453949"><ele>938.98</ele><time>2026-01-09T23:07:21.000Z</time></trkpt>
        <trkpt lat="28.8433659" lon="104.2452777"><ele>938.2</ele><time>2026-01-09T23:07:37.000Z</time></trkpt>
        <trkpt lat="28.843318" lon="104.2451786"><ele>938.92</ele><time>2026-01-09T23:07:57.000Z</time></trkpt>
        <trkpt lat="28.84328" lon="104.2450782"><ele>939.55</ele><time>2026-01-09T23:08:19.000Z</time></trkpt>
        <trkpt lat="28.8432283" lon="104.2449882"><ele>940.29</ele><time>2026-01-09T23:08:51.000Z</time></trkpt>
        <trkpt lat="28.8431549" lon="104.2449146"><ele>937.63</ele><time>2026-01-09T23:09:13.000Z</time></trkpt>
        <trkpt lat="28.8430872" lon="104.2448263"><ele>933.17</ele><time>2026-01-09T23:09:31.000Z</time></trkpt>
        <trkpt lat="28.8430377" lon="104.2447355"><ele>928.63</ele><time>2026-01-09T23:09:45.000Z</time></trkpt>
        <trkpt lat="28.8429519" lon="104.2446907"><ele>925.19</ele><time>2026-01-09T23:09:57.000Z</time></trkpt>
        <trkpt lat="28.8428577" lon="104.2446584"><ele>923.22</ele><time>2026-01-09T23:12:23.000Z</time></trkpt>
        <trkpt lat="28.8427684" lon="104.2446386"><ele>920.35</ele><time>2026-01-09T23:13:29.000Z</time></trkpt>
        <trkpt lat="28.8426901" lon="104.2445522"><ele>918.04</ele><time>2026-01-09T23:13:57.000Z</time></trkpt>
        <trkpt lat="28.8426277" lon="104.2444612"><ele>912.44</ele><time>2026-01-09T23:14:21.000Z</time></trkpt>
        <trkpt lat="28.8425539" lon="104.2444005"><ele>906.62</ele><time>2026-01-09T23:14:31.000Z</time></trkpt>
        <trkpt lat="28.8424693" lon="104.2444266"><ele>901.2</ele><time>2026-01-09T23:14:41.000Z</time></trkpt>
        <trkpt lat="28.8423875" lon="104.2444922"><ele>896.58</ele><time>2026-01-09T23:14:51.000Z</time></trkpt>
        <trkpt lat="28.8423081" lon="104.2445674"><ele>893.27</ele><time>2026-01-09T23:14:59.000Z</time></trkpt>
        <trkpt lat="28.8422112" lon="104.2446191"><ele>891.94</ele><time>2026-01-09T23:15:09.000Z</time></trkpt>
        <trkpt lat="28.8421099" lon="104.2446428"><ele>892.77</ele><time>2026-01-09T23:15:17.000Z</time></trkpt>
        <trkpt lat="28.8420083" lon="104.2446706"><ele>893.66</ele><time>2026-01-09T23:15:27.000Z</time></trkpt>
        <trkpt lat="28.841909" lon="104.2447174"><ele>894.93</ele><time>2026-01-09T23:15:39.000Z</time></trkpt>
        <trkpt lat="28.8418188" lon="104.2447516"><ele>896.11</ele><time>2026-01-09T23:15:47.000Z</time></trkpt>
        <trkpt lat="28.8417827" lon="104.2446833"><ele>897.22</ele><time>2026-01-09T23:15:59.000Z</time></trkpt>
        <trkpt lat="28.8417734" lon="104.244577"><ele>896.74</ele><time>2026-01-09T23:16:13.000Z</time></trkpt>
        <trkpt lat="28.84173" lon="104.2444796"><ele>895.92</ele><time>2026-01-09T23:16:25.000Z</time></trkpt>
        <trkpt lat="28.8416561" lon="104.244409"><ele>894.76</ele><time>2026-01-09T23:16:39.000Z</time></trkpt>
        <trkpt lat="28.8415652" lon="104.244368"><ele>894.12</ele><time>2026-01-09T23:16:49.000Z</time></trkpt>
        <trkpt lat="28.841474" lon="104.2443188"><ele>894.4</ele><time>2026-01-09T23:17:15.000Z</time></trkpt>
        <trkpt lat="28.8413758" lon="104.2443091"><ele>893.37</ele><time>2026-01-09T23:17:23.000Z</time></trkpt>
        <trkpt lat="28.841272" lon="104.2442891"><ele>892.03</ele><time>2026-01-09T23:17:35.000Z</time></trkpt>
        <trkpt lat="28.8412189" lon="104.2442142"><ele>889.17</ele><time>2026-01-09T23:17:51.000Z</time></trkpt>
        <trkpt lat="28.841132" lon="104.2441566"><ele>884.87</ele><time>2026-01-09T23:18:07.000Z</time></trkpt>
        <trkpt lat="28.8410344" lon="104.2441374"><ele>880.26</ele><time>2026-01-09T23:18:19.000Z</time></trkpt>
        <trkpt lat="28.8409403" lon="104.2441707"><ele>876.34</ele><time>2026-01-09T23:18:31.000Z</time></trkpt>
        <trkpt lat="28.8408534" lon="104.2442246"><ele>872.63</ele><time>2026-01-09T23:18:47.000Z</time></trkpt>
        <trkpt lat="28.840775" lon="104.2443005"><ele>870.22</ele><time>2026-01-09T23:18:57.000Z</time></trkpt>
        <trkpt lat="28.8407195" lon="104.2444032"><ele>867.29</ele><time>2026-01-09T23:19:05.000Z</time></trkpt>
        <trkpt lat="28.8406704" lon="104.24451"><ele>864.7</ele><time>2026-01-09T23:19:15.000Z</time></trkpt>
        <trkpt lat="28.8406059" lon="104.2446096"><ele>861.82</ele><time>2026-01-09T23:19:33.000Z</time></trkpt>
        <trkpt lat="28.8405552" lon="104.2447113"><ele>859.75</ele><time>2026-01-09T23:19:45.000Z</time></trkpt>
        <trkpt lat="28.8405259" lon="104.2448118"><ele>858.22</ele><time>2026-01-09T23:19:57.000Z</time></trkpt>
        <trkpt lat="28.8404879" lon="104.244912"><ele>857.12</ele><time>2026-01-09T23:20:07.000Z</time></trkpt>
        <trkpt lat="28.8404247" lon="104.2450212"><ele>856.19</ele><time>2026-01-09T23:20:17.000Z</time></trkpt>
        <trkpt lat="28.8403281" lon="104.2450767"><ele>854.72</ele><time>2026-01-09T23:20:31.000Z</time></trkpt>
        <trkpt lat="28.8402706" lon="104.2451564"><ele>851.83</ele><time>2026-01-09T23:20:41.000Z</time></trkpt>
        <trkpt lat="28.8402282" lon="104.2452516"><ele>849.06</ele><time>2026-01-09T23:20:51.000Z</time></trkpt>
        <trkpt lat="28.8401859" lon="104.2453656"><ele>845.19</ele><time>2026-01-09T23:21:03.000Z</time></trkpt>
        <trkpt lat="28.8401284" lon="104.2454659"><ele>842.15</ele><time>2026-01-09T23:21:09.000Z</time></trkpt>
        <trkpt lat="28.8400625" lon="104.2455541"><ele>840.87</ele><time>2026-01-09T23:21:19.000Z</time></trkpt>
        <trkpt lat="28.8399938" lon="104.2456443"><ele>840.08</ele><time>2026-01-09T23:21:27.000Z</time></trkpt>
        <trkpt lat="28.8398983" lon="104.2456685"><ele>839.48</ele><time>2026-01-09T23:21:37.000Z</time></trkpt>
        <trkpt lat="28.8397986" lon="104.2456569"><ele>838.14</ele><time>2026-01-09T23:21:45.000Z</time></trkpt>
        <trkpt lat="28.8396967" lon="104.2456231"><ele>836.32</ele><time>2026-01-09T23:21:59.000Z</time></trkpt>
        <trkpt lat="28.8396711" lon="104.2456918"><ele>834.17</ele><time>2026-01-09T23:22:21.000Z</time></trkpt>
        <trkpt lat="28.8396742" lon="104.2458021"><ele>829.22</ele><time>2026-01-09T23:22:33.000Z</time></trkpt>
        <trkpt lat="28.8396857" lon="104.2459292"><ele>824.98</ele><time>2026-01-09T23:22:41.000Z</time></trkpt>
        <trkpt lat="28.839675" lon="104.2460484"><ele>821.85</ele><time>2026-01-09T23:22:49.000Z</time></trkpt>
        <trkpt lat="28.8396344" lon="104.2461575"><ele>820.31</ele><time>2026-01-09T23:22:57.000Z</time></trkpt>
        <trkpt lat="28.8395828" lon="104.2462624"><ele>818.84</ele><time>2026-01-09T23:23:07.000Z</time></trkpt>
        <trkpt lat="28.8395224" lon="104.2463657"><ele>817.17</ele><time>2026-01-09T23:23:17.000Z</time></trkpt>
        <trkpt lat="28.8394744" lon="104.2464632"><ele>815.38</ele><time>2026-01-09T23:23:29.000Z</time></trkpt>
        <trkpt lat="28.8394049" lon="104.2465304"><ele>814.76</ele><time>2026-01-09T23:23:49.000Z</time></trkpt>
        <trkpt lat="28.8393181" lon="104.2465116"><ele>813.38</ele><time>2026-01-09T23:24:05.000Z</time></trkpt>
        <trkpt lat="28.8392304" lon="104.2465362"><ele>810.84</ele><time>2026-01-09T23:24:27.000Z</time></trkpt>
        <trkpt lat="28.839138" lon="104.2465692"><ele>806.52</ele><time>2026-01-09T23:24:37.000Z</time></trkpt>
        <trkpt lat="28.8390871" lon="104.2466518"><ele>804.02</ele><time>2026-01-09T23:24:45.000Z</time></trkpt>
        <trkpt lat="28.839016" lon="104.2467167"><ele>803.63</ele><time>2026-01-09T23:24:57.000Z</time></trkpt>
        <trkpt lat="28.8389237" lon="104.2467364"><ele>802.83</ele><time>2026-01-09T23:25:05.000Z</time></trkpt>
        <trkpt lat="28.83882" lon="104.2466974"><ele>802.51</ele><time>2026-01-09T23:25:15.000Z</time></trkpt>
        <trkpt lat="28.8387243" lon="104.246709"><ele>801.2</ele><time>2026-01-09T23:25:29.000Z</time></trkpt>
        <trkpt lat="28.838717" lon="104.2467999"><ele>799.51</ele><time>2026-01-09T23:25:37.000Z</time></trkpt>
        <trkpt lat="28.8387458" lon="104.2469245"><ele>796.98</ele><time>2026-01-09T23:25:45.000Z</time></trkpt>
        <trkpt lat="28.8387327" lon="104.247036"><ele>793.64</ele><time>2026-01-09T23:25:55.000Z</time></trkpt>
        <trkpt lat="28.8386793" lon="104.2471258"><ele>792.54</ele><time>2026-01-09T23:26:03.000Z</time></trkpt>
        <trkpt lat="28.8386279" lon="104.2472179"><ele>792.55</ele><time>2026-01-09T23:26:11.000Z</time></trkpt>
        <trkpt lat="28.8386294" lon="104.2473211"><ele>793.46</ele><time>2026-01-09T23:26:21.000Z</time></trkpt>
        <trkpt lat="28.8386762" lon="104.2474314"><ele>795.24</ele><time>2026-01-09T23:26:31.000Z</time></trkpt>
        <trkpt lat="28.8387248" lon="104.2475438"><ele>796.84</ele><time>2026-01-09T23:26:41.000Z</time></trkpt>
        <trkpt lat="28.8388081" lon="104.2475842"><ele>799.78</ele><time>2026-01-09T23:27:13.000Z</time></trkpt>
        <trkpt lat="28.8389003" lon="104.2475634"><ele>801.86</ele><time>2026-01-09T23:27:23.000Z</time></trkpt>
        <trkpt lat="28.8389859" lon="104.2475063"><ele>802.73</ele><time>2026-01-09T23:27:41.000Z</time></trkpt>
        <trkpt lat="28.8390746" lon="104.2474563"><ele>801.98</ele><time>2026-01-09T23:27:53.000Z</time></trkpt>
        <trkpt lat="28.8391568" lon="104.2473981"><ele>800.1</ele><time>2026-01-09T23:28:01.000Z</time></trkpt>
        <trkpt lat="28.8392344" lon="104.2473334"><ele>797.73</ele><time>2026-01-09T23:28:09.000Z</time></trkpt>
        <trkpt lat="28.839306" lon="104.2472497"><ele>795.28</ele><time>2026-01-09T23:28:17.000Z</time></trkpt>
        <trkpt lat="28.8393932" lon="104.2471743"><ele>793.54</ele><time>2026-01-09T23:28:25.000Z</time></trkpt>
        <trkpt lat="28.8393767" lon="104.2472327"><ele>792.21</ele><time>2026-01-09T23:28:55.000Z</time></trkpt>
        <trkpt lat="28.8393021" lon="104.2473116"><ele>790.24</ele><time>2026-01-09T23:29:07.000Z</time></trkpt>
        <trkpt lat="28.8391935" lon="104.2473663"><ele>788.87</ele><time>2026-01-09T23:29:15.000Z</time></trkpt>
        <trkpt lat="28.839095" lon="104.2474407"><ele>790.24</ele><time>2026-01-09T23:29:25.000Z</time></trkpt>
        <trkpt lat="28.8390066" lon="104.247527"><ele>792.9</ele><time>2026-01-09T23:29:35.000Z</time></trkpt>
        <trkpt lat="28.8389498" lon="104.2476186"><ele>795.8</ele><time>2026-01-09T23:29:43.000Z</time></trkpt>
        <trkpt lat="28.8388972" lon="104.2477123"><ele>798.25</ele><time>2026-01-09T23:29:53.000Z</time></trkpt>
        <trkpt lat="28.8389663" lon="104.2477157"><ele>799.93</ele><time>2026-01-09T23:30:07.000Z</time></trkpt>
        <trkpt lat="28.8390801" lon="104.2476696"><ele>800.65</ele><time>2026-01-09T23:30:21.000Z</time></trkpt>
        <trkpt lat="28.8391915" lon="104.2476447"><ele>800.69</ele><time>2026-01-09T23:30:29.000Z</time></trkpt>
        <trkpt lat="28.8392942" lon="104.2476634"><ele>800.03</ele><time>2026-01-09T23:30:39.000Z</time></trkpt>
        <trkpt lat="28.8393874" lon="104.2477147"><ele>798.28</ele><time>2026-01-09T23:30:49.000Z</time></trkpt>
        <trkpt lat="28.8394212" lon="104.2477678"><ele>796.13</ele><time>2026-01-09T23:30:55.000Z</time></trkpt>
        <trkpt lat="28.8393894" lon="104.2478555"><ele>794.38</ele><time>2026-01-09T23:31:13.000Z</time></trkpt>
        <trkpt lat="28.8393144" lon="104.247947"><ele>793.68</ele><time>2026-01-09T23:31:23.000Z</time></trkpt>
        <trkpt lat="28.8392761" lon="104.2480636"><ele>792.35</ele><time>2026-01-09T23:31:35.000Z</time></trkpt>
        <trkpt lat="28.8392635" lon="104.2481811"><ele>790.7</ele><time>2026-01-09T23:31:43.000Z</time></trkpt>
        <trkpt lat="28.8392304" lon="104.2482863"><ele>788.52</ele><time>2026-01-09T23:31:53.000Z</time></trkpt>
        <trkpt lat="28.8392086" lon="104.2483916"><ele>786.02</ele><time>2026-01-09T23:32:03.000Z</time></trkpt>
        <trkpt lat="28.839156" lon="104.2484813"><ele>783.67</ele><time>2026-01-09T23:32:15.000Z</time></trkpt>
        <trkpt lat="28.8390883" lon="104.2485696"><ele>781.62</ele><time>2026-01-09T23:32:27.000Z</time></trkpt>
        <trkpt lat="28.8390426" lon="104.2486629"><ele>779.63</ele><time>2026-01-09T23:32:35.000Z</time></trkpt>
        <trkpt lat="28.8389734" lon="104.2487294"><ele>778.29</ele><time>2026-01-09T23:32:49.000Z</time></trkpt>
        <trkpt lat="28.8388898" lon="104.2487905"><ele>776.94</ele><time>2026-01-09T23:33:03.000Z</time></trkpt>
        <trkpt lat="28.838801" lon="104.2488377"><ele>774.73</ele><time>2026-01-09T23:33:19.000Z</time></trkpt>
        <trkpt lat="28.8387078" lon="104.2488113"><ele>772.09</ele><time>2026-01-09T23:33:29.000Z</time></trkpt>
        <trkpt lat="28.8386256" lon="104.2487506"><ele>769.56</ele><time>2026-01-09T23:33:49.000Z</time></trkpt>
        <trkpt lat="28.838553" lon="104.2486726"><ele>766.37</ele><time>2026-01-09T23:34:03.000Z</time></trkpt>
        <trkpt lat="28.8384708" lon="104.2486687"><ele>764.32</ele><time>2026-01-09T23:34:29.000Z</time></trkpt>
        <trkpt lat="28.8383903" lon="104.2487179"><ele>762.26</ele><time>2026-01-09T23:34:51.000Z</time></trkpt>
        <trkpt lat="28.8383246" lon="104.2487994"><ele>758.95</ele><time>2026-01-09T23:35:01.000Z</time></trkpt>
        <trkpt lat="28.838269" lon="104.2488962"><ele>756.23</ele><time>2026-01-09T23:35:23.000Z</time></trkpt>
        <trkpt lat="28.8382659" lon="104.2490123"><ele>752.76</ele><time>2026-01-09T23:35:39.000Z</time></trkpt>
        <trkpt lat="28.8382486" lon="104.2491225"><ele>749.57</ele><time>2026-01-09T23:35:51.000Z</time></trkpt>
        <trkpt lat="28.8382046" lon="104.2490888"><ele>747.5</ele><time>2026-01-09T23:36:23.000Z</time></trkpt>
        <trkpt lat="28.8381434" lon="104.248999"><ele>746.25</ele><time>2026-01-09T23:36:41.000Z</time></trkpt>
        <trkpt lat="28.8380511" lon="104.2489851"><ele>742.82</ele><time>2026-01-09T23:36:59.000Z</time></trkpt>
        <trkpt lat="28.8379756" lon="104.2490515"><ele>738.45</ele><time>2026-01-09T23:37:17.000Z</time></trkpt>
        <trkpt lat="28.8378989" lon="104.2491225"><ele>734.19</ele><time>2026-01-09T23:37:39.000Z</time></trkpt>
        <trkpt lat="28.8378826" lon="104.2492232"><ele>729.66</ele><time>2026-01-09T23:37:57.000Z</time></trkpt>
        <trkpt lat="28.8378522" lon="104.249328"><ele>724.19</ele><time>2026-01-09T23:38:15.000Z</time></trkpt>
        <trkpt lat="28.8378582" lon="104.2494381"><ele>718.25</ele><time>2026-01-09T23:38:33.000Z</time></trkpt>
        <trkpt lat="28.837829" lon="104.2495396"><ele>712.85</ele><time>2026-01-09T23:38:55.000Z</time></trkpt>
        <trkpt lat="28.8378453" lon="104.2496402"><ele>707.84</ele><time>2026-01-09T23:39:07.000Z</time></trkpt>
        <trkpt lat="28.8378778" lon="104.2497402"><ele>703.61</ele><time>2026-01-09T23:39:23.000Z</time></trkpt>
        <trkpt lat="28.8379155" lon="104.249839"><ele>701.09</ele><time>2026-01-09T23:39:37.000Z</time></trkpt>
        <trkpt lat="28.8379645" lon="104.2499323"><ele>698.88</ele><time>2026-01-09T23:39:53.000Z</time></trkpt>
        <trkpt lat="28.838028" lon="104.2500113"><ele>696.25</ele><time>2026-01-09T23:40:21.000Z</time></trkpt>
        <trkpt lat="28.8380576" lon="104.250112"><ele>694.65</ele><time>2026-01-09T23:40:53.000Z</time></trkpt>
        <trkpt lat="28.8379988" lon="104.2501959"><ele>691.76</ele><time>2026-01-09T23:41:05.000Z</time></trkpt>
        <trkpt lat="28.8379043" lon="104.2502363"><ele>689.34</ele><time>2026-01-09T23:41:15.000Z</time></trkpt>
        <trkpt lat="28.8377913" lon="104.2502441"><ele>687.72</ele><time>2026-01-09T23:41:25.000Z</time></trkpt>
        <trkpt lat="28.8376828" lon="104.2502755"><ele>686.54</ele><time>2026-01-09T23:41:37.000Z</time></trkpt>
        <trkpt lat="28.8375814" lon="104.2503094"><ele>685.3</ele><time>2026-01-09T23:41:47.000Z</time></trkpt>
        <trkpt lat="28.8375135" lon="104.2503888"><ele>684.46</ele><time>2026-01-09T23:41:55.000Z</time></trkpt>
        <trkpt lat="28.8374432" lon="104.2504672"><ele>683.38</ele><time>2026-01-09T23:42:25.000Z</time></trkpt>
        <trkpt lat="28.8373451" lon="104.250476"><ele>683.33</ele><time>2026-01-09T23:42:35.000Z</time></trkpt>
        <trkpt lat="28.8372653" lon="104.2504805"><ele>682.76</ele><time>2026-01-09T23:42:49.000Z</time></trkpt>
        <trkpt lat="28.8372438" lon="104.2503961"><ele>681.92</ele><time>2026-01-09T23:43:03.000Z</time></trkpt>
        <trkpt lat="28.8371813" lon="104.2503322"><ele>680.9</ele><time>2026-01-09T23:43:11.000Z</time></trkpt>
        <trkpt lat="28.8371622" lon="104.2503152"><ele>681.22</ele><time>2026-01-09T23:43:29.000Z</time></trkpt>
        <trkpt lat="28.8371057" lon="104.2503641"><ele>680.62</ele><time>2026-01-09T23:43:53.000Z</time></trkpt>
        <trkpt lat="28.8371246" lon="104.2504679"><ele>679.18</ele><time>2026-01-09T23:44:37.000Z</time></trkpt>
        <trkpt lat="28.8371576" lon="104.2505785"><ele>676.18</ele><time>2026-01-09T23:44:57.000Z</time></trkpt>
        <trkpt lat="28.8370942" lon="104.2506866"><ele>673.88</ele><time>2026-01-09T23:46:31.000Z</time></trkpt>
        <trkpt lat="28.8370464" lon="104.2507749"><ele>670.48</ele><time>2026-01-09T23:46:47.000Z</time></trkpt>
        <trkpt lat="28.8370543" lon="104.2508772"><ele>668.46</ele><time>2026-01-09T23:47:15.000Z</time></trkpt>
        <trkpt lat="28.837107" lon="104.2509819"><ele>668.52</ele><time>2026-01-09T23:47:29.000Z</time></trkpt>
        <trkpt lat="28.8371573" lon="104.2510826"><ele>669.44</ele><time>2026-01-09T23:47:49.000Z</time></trkpt>
        <trkpt lat="28.837201" lon="104.2511804"><ele>669.68</ele><time>2026-01-09T23:48:17.000Z</time></trkpt>
        <trkpt lat="28.8372773" lon="104.2512353"><ele>668.89</ele><time>2026-01-09T23:48:35.000Z</time></trkpt>
        <trkpt lat="28.8373708" lon="104.2512574"><ele>667.31</ele><time>2026-01-09T23:48:51.000Z</time></trkpt>
        <trkpt lat="28.8374808" lon="104.2512555"><ele>667.66</ele><time>2026-01-09T23:49:07.000Z</time></trkpt>
        <trkpt lat="28.8375836" lon="104.2512517"><ele>667.51</ele><time>2026-01-09T23:49:15.000Z</time></trkpt>
        <trkpt lat="28.837688" lon="104.2512658"><ele>666.1</ele><time>2026-01-09T23:49:23.000Z</time></trkpt>
        <trkpt lat="28.8377674" lon="104.2513363"><ele>664.57</ele><time>2026-01-09T23:49:37.000Z</time></trkpt>
        <trkpt lat="28.8378209" lon="104.25143"><ele>663.52</ele><time>2026-01-09T23:49:47.000Z</time></trkpt>
        <trkpt lat="28.8378255" lon="104.2515443"><ele>663.4</ele><time>2026-01-09T23:50:23.000Z</time></trkpt>
        <trkpt lat="28.837794" lon="104.2516542"><ele>663.83</ele><time>2026-01-09T23:50:55.000Z</time></trkpt>
        <trkpt lat="28.8378408" lon="104.2517369"><ele>665.78</ele><time>2026-01-09T23:51:37.000Z</time></trkpt>
        <trkpt lat="28.8379373" lon="104.2517514"><ele>669.74</ele><time>2026-01-09T23:51:49.000Z</time></trkpt>
        <trkpt lat="28.8380499" lon="104.2517496"><ele>672.24</ele><time>2026-01-09T23:51:57.000Z</time></trkpt>
        <trkpt lat="28.8381617" lon="104.2517731"><ele>674.37</ele><time>2026-01-09T23:52:07.000Z</time></trkpt>
        <trkpt lat="28.8382512" lon="104.2518199"><ele>675.58</ele><time>2026-01-09T23:52:25.000Z</time></trkpt>
        <trkpt lat="28.8383407" lon="104.2518557"><ele>674.44</ele><time>2026-01-09T23:52:37.000Z</time></trkpt>
        <trkpt lat="28.8384281" lon="104.251894"><ele>671.61</ele><time>2026-01-09T23:52:47.000Z</time></trkpt>
        <trkpt lat="28.8385179" lon="104.2519496"><ele>668.61</ele><time>2026-01-09T23:52:59.000Z</time></trkpt>
        <trkpt lat="28.838598" lon="104.2520115"><ele>666.21</ele><time>2026-01-09T23:53:07.000Z</time></trkpt>
        <trkpt lat="28.8386795" lon="104.2520766"><ele>664.18</ele><time>2026-01-09T23:53:15.000Z</time></trkpt>
        <trkpt lat="28.8387669" lon="104.252156"><ele>662.01</ele><time>2026-01-09T23:53:27.000Z</time></trkpt>
        <trkpt lat="28.8388567" lon="104.2522115"><ele>659.98</ele><time>2026-01-09T23:53:35.000Z</time></trkpt>
        <trkpt lat="28.8389403" lon="104.2522553"><ele>658.55</ele><time>2026-01-09T23:53:53.000Z</time></trkpt>
        <trkpt lat="28.8390296" lon="104.2522857"><ele>658.58</ele><time>2026-01-09T23:56:19.000Z</time></trkpt>
        <trkpt lat="28.8391311" lon="104.2523013"><ele>657.92</ele><time>2026-01-09T23:56:33.000Z</time></trkpt>
        <trkpt lat="28.8392312" lon="104.2523347"><ele>657.39</ele><time>2026-01-09T23:56:43.000Z</time></trkpt>
        <trkpt lat="28.839321" lon="104.2523707"><ele>656.18</ele><time>2026-01-09T23:56:51.000Z</time></trkpt>
        <trkpt lat="28.8393959" lon="104.2524309"><ele>655.54</ele><time>2026-01-09T23:57:01.000Z</time></trkpt>
        <trkpt lat="28.8394714" lon="104.2525069"><ele>654.28</ele><time>2026-01-09T23:57:09.000Z</time></trkpt>
        <trkpt lat="28.8395505" lon="104.2525777"><ele>653.2</ele><time>2026-01-09T23:57:19.000Z</time></trkpt>
        <trkpt lat="28.8396353" lon="104.2526232"><ele>653.28</ele><time>2026-01-09T23:57:35.000Z</time></trkpt>
        <trkpt lat="28.839722" lon="104.2526575"><ele>655.04</ele><time>2026-01-09T23:57:47.000Z</time></trkpt>
        <trkpt lat="28.8398145" lon="104.2527196"><ele>656.72</ele><time>2026-01-09T23:58:03.000Z</time></trkpt>
        <trkpt lat="28.8399055" lon="104.2527499"><ele>659.09</ele><time>2026-01-09T23:58:13.000Z</time></trkpt>
        <trkpt lat="28.8399995" lon="104.2527707"><ele>661.54</ele><time>2026-01-09T23:58:29.000Z</time></trkpt>
        <trkpt lat="28.8400981" lon="104.2527896"><ele>663.92</ele><time>2026-01-09T23:58:43.000Z</time></trkpt>
        <trkpt lat="28.8402026" lon="104.2528243"><ele>665.61</ele><time>2026-01-09T23:58:53.000Z</time></trkpt>
        <trkpt lat="28.840289" lon="104.2528719"><ele>665.77</ele><time>2026-01-09T23:59:03.000Z</time></trkpt>
        <trkpt lat="28.8403708" lon="104.2529258"><ele>664.94</ele><time>2026-01-09T23:59:11.000Z</time></trkpt>
        <trkpt lat="28.8404527" lon="104.2529893"><ele>663.92</ele><time>2026-01-09T23:59:21.000Z</time></trkpt>
        <trkpt lat="28.8405372" lon="104.2530632"><ele>662.59</ele><time>2026-01-09T23:59:31.000Z</time></trkpt>
        <trkpt lat="28.8406281" lon="104.253099"><ele>660.89</ele><time>2026-01-09T23:59:41.000Z</time></trkpt>
        <trkpt lat="28.8407278" lon="104.2531085"><ele>659.42</ele><time>2026-01-09T23:59:53.000Z</time></trkpt>
        <trkpt lat="28.8408382" lon="104.2531214"><ele>658.63</ele><time>2026-01-10T00:00:07.000Z</time></trkpt>
        <trkpt lat="28.8409309" lon="104.2531694"><ele>657.32</ele><time>2026-01-10T00:00:17.000Z</time></trkpt>
        <trkpt lat="28.8410255" lon="104.2532313"><ele>655.01</ele><time>2026-01-10T00:00:31.000Z</time></trkpt>
        <trkpt lat="28.8411089" lon="104.2532856"><ele>652.15</ele><time>2026-01-10T00:00:39.000Z</time></trkpt>
        <trkpt lat="28.8411833" lon="104.2533488"><ele>650.27</ele><time>2026-01-10T00:00:47.000Z</time></trkpt>
        <trkpt lat="28.8412495" lon="104.2534295"><ele>648.93</ele><time>2026-01-10T00:00:55.000Z</time></trkpt>
        <trkpt lat="28.8413042" lon="104.2535246"><ele>647.38</ele><time>2026-01-10T00:01:07.000Z</time></trkpt>
        <trkpt lat="28.8413666" lon="104.2536145"><ele>646.15</ele><time>2026-01-10T00:01:17.000Z</time></trkpt>
        <trkpt lat="28.841421" lon="104.2537153"><ele>645.19</ele><time>2026-01-10T00:01:39.000Z</time></trkpt>
        <trkpt lat="28.8414518" lon="104.2538395"><ele>645.04</ele><time>2026-01-10T00:01:51.000Z</time></trkpt>
        <trkpt lat="28.8414637" lon="104.2539655"><ele>645.4</ele><time>2026-01-10T00:02:07.000Z</time></trkpt>
        <trkpt lat="28.8414653" lon="104.2540915"><ele>644.97</ele><time>2026-01-10T00:02:17.000Z</time></trkpt>
        <trkpt lat="28.8414372" lon="104.2542073"><ele>645.89</ele><time>2026-01-10T00:02:29.000Z</time></trkpt>
        <trkpt lat="28.8413743" lon="104.2543017"><ele>646.68</ele><time>2026-01-10T00:02:37.000Z</time></trkpt>
        <trkpt lat="28.8413047" lon="104.2543914"><ele>647.81</ele><time>2026-01-10T00:02:47.000Z</time></trkpt>
        <trkpt lat="28.8412549" lon="104.2544881"><ele>649.31</ele><time>2026-01-10T00:02:55.000Z</time></trkpt>
        <trkpt lat="28.8412146" lon="104.2546078"><ele>650.12</ele><time>2026-01-10T00:03:05.000Z</time></trkpt>
        <trkpt lat="28.8411695" lon="104.2547235"><ele>650.05</ele><time>2026-01-10T00:03:15.000Z</time></trkpt>
        <trkpt lat="28.841185" lon="104.2548333"><ele>649.85</ele><time>2026-01-10T00:03:27.000Z</time></trkpt>
        <trkpt lat="28.841252" lon="104.2549065"><ele>649.36</ele><time>2026-01-10T00:03:41.000Z</time></trkpt>
        <trkpt lat="28.8413489" lon="104.2549457"><ele>649.23</ele><time>2026-01-10T00:03:53.000Z</time></trkpt>
        <trkpt lat="28.841456" lon="104.2549568"><ele>649.57</ele><time>2026-01-10T00:04:03.000Z</time></trkpt>
        <trkpt lat="28.841557" lon="104.2549861"><ele>650.81</ele><time>2026-01-10T00:04:15.000Z</time></trkpt>
        <trkpt lat="28.8416451" lon="104.2550523"><ele>651.25</ele><time>2026-01-10T00:05:41.000Z</time></trkpt>
        <trkpt lat="28.8416267" lon="104.2551754"><ele>653.9</ele><time>2026-01-10T00:05:51.000Z</time></trkpt>
        <trkpt lat="28.8415911" lon="104.2552731"><ele>654.65</ele><time>2026-01-10T00:06:01.000Z</time></trkpt>
        <trkpt lat="28.8415294" lon="104.2553627"><ele>654.87</ele><time>2026-01-10T00:06:15.000Z</time></trkpt>
        <trkpt lat="28.8415134" lon="104.2554729"><ele>656.1</ele><time>2026-01-10T00:06:37.000Z</time></trkpt>
        <trkpt lat="28.8414958" lon="104.2555875"><ele>656.32</ele><time>2026-01-10T00:06:47.000Z</time></trkpt>
        <trkpt lat="28.8414697" lon="104.2557009"><ele>655.13</ele><time>2026-01-10T00:06:57.000Z</time></trkpt>
        <trkpt lat="28.841404" lon="104.2558052"><ele>653.14</ele><time>2026-01-10T00:07:09.000Z</time></trkpt>
        <trkpt lat="28.841324" lon="104.2558842"><ele>652.22</ele><time>2026-01-10T00:07:21.000Z</time></trkpt>
        <trkpt lat="28.8413123" lon="104.2559801"><ele>652.93</ele><time>2026-01-10T00:07:33.000Z</time></trkpt>
        <trkpt lat="28.8413266" lon="104.2560827"><ele>653.29</ele><time>2026-01-10T00:07:43.000Z</time></trkpt>
        <trkpt lat="28.8413135" lon="104.2561859"><ele>652.48</ele><time>2026-01-10T00:08:03.000Z</time></trkpt>
        <trkpt lat="28.8413526" lon="104.2562798"><ele>651</ele><time>2026-01-10T00:08:15.000Z</time></trkpt>
        <trkpt lat="28.8414298" lon="104.2563539"><ele>649.34</ele><time>2026-01-10T00:08:29.000Z</time></trkpt>
        <trkpt lat="28.8415329" lon="104.2563813"><ele>647.48</ele><time>2026-01-10T00:08:45.000Z</time></trkpt>
        <trkpt lat="28.8416358" lon="104.2564119"><ele>645.91</ele><time>2026-01-10T00:08:57.000Z</time></trkpt>
        <trkpt lat="28.8417364" lon="104.2564348"><ele>644.37</ele><time>2026-01-10T00:09:11.000Z</time></trkpt>
        <trkpt lat="28.8418314" lon="104.2564311"><ele>643.12</ele><time>2026-01-10T00:09:25.000Z</time></trkpt>
        <trkpt lat="28.8419253" lon="104.2564205"><ele>641.89</ele><time>2026-01-10T00:09:37.000Z</time></trkpt>
        <trkpt lat="28.8419528" lon="104.2564916"><ele>639.95</ele><time>2026-01-10T00:09:55.000Z</time></trkpt>
        <trkpt lat="28.8419416" lon="104.2566003"><ele>637.42</ele><time>2026-01-10T00:10:13.000Z</time></trkpt>
        <trkpt lat="28.8419234" lon="104.2567176"><ele>634.74</ele><time>2026-01-10T00:10:27.000Z</time></trkpt>
        <trkpt lat="28.8419762" lon="104.2567086"><ele>631.59</ele><time>2026-01-10T00:10:37.000Z</time></trkpt>
        <trkpt lat="28.8420609" lon="104.2566695"><ele>629.01</ele><time>2026-01-10T00:10:47.000Z</time></trkpt>
        <trkpt lat="28.8421729" lon="104.2566209"><ele>625.8</ele><time>2026-01-10T00:10:59.000Z</time></trkpt>
        <trkpt lat="28.8422747" lon="104.2565622"><ele>622.74</ele><time>2026-01-10T00:11:09.000Z</time></trkpt>
        <trkpt lat="28.8423656" lon="104.2565045"><ele>620.37</ele><time>2026-01-10T00:11:37.000Z</time></trkpt>
        <trkpt lat="28.842427" lon="104.2564242"><ele>619.59</ele><time>2026-01-10T00:11:49.000Z</time></trkpt>
        <trkpt lat="28.8424241" lon="104.2563105"><ele>619.48</ele><time>2026-01-10T00:12:49.000Z</time></trkpt>
        <trkpt lat="28.8423761" lon="104.2562038"><ele>617.75</ele><time>2026-01-10T00:12:59.000Z</time></trkpt>
        <trkpt lat="28.8424219" lon="104.2561792"><ele>615.84</ele><time>2026-01-10T00:13:09.000Z</time></trkpt>
        <trkpt lat="28.8425108" lon="104.2562201"><ele>613.44</ele><time>2026-01-10T00:13:19.000Z</time></trkpt>
        <trkpt lat="28.8426071" lon="104.2562588"><ele>611.02</ele><time>2026-01-10T00:13:27.000Z</time></trkpt>
        <trkpt lat="28.8427002" lon="104.2562323"><ele>608.84</ele><time>2026-01-10T00:13:39.000Z</time></trkpt>
        <trkpt lat="28.8427914" lon="104.2561784"><ele>607.27</ele><time>2026-01-10T00:13:49.000Z</time></trkpt>
        <trkpt lat="28.8428802" lon="104.2561159"><ele>605.33</ele><time>2026-01-10T00:13:59.000Z</time></trkpt>
        <trkpt lat="28.8429614" lon="104.2560482"><ele>603.62</ele><time>2026-01-10T00:14:11.000Z</time></trkpt>
        <trkpt lat="28.8430422" lon="104.2559804"><ele>601.13</ele><time>2026-01-10T00:14:21.000Z</time></trkpt>
        <trkpt lat="28.8431379" lon="104.2559536"><ele>598.67</ele><time>2026-01-10T00:14:31.000Z</time></trkpt>
        <trkpt lat="28.843208" lon="104.2560145"><ele>596.18</ele><time>2026-01-10T00:14:39.000Z</time></trkpt>
        <trkpt lat="28.8432623" lon="104.2561104"><ele>593.86</ele><time>2026-01-10T00:14:49.000Z</time></trkpt>
        <trkpt lat="28.8433168" lon="104.2562064"><ele>590.72</ele><time>2026-01-10T00:14:59.000Z</time></trkpt>
        <trkpt lat="28.8433805" lon="104.256293"><ele>588.06</ele><time>2026-01-10T00:15:09.000Z</time></trkpt>
        <trkpt lat="28.8434305" lon="104.2563993"><ele>586.67</ele><time>2026-01-10T00:15:19.000Z</time></trkpt>
        <trkpt lat="28.8434426" lon="104.2564889"><ele>585.5</ele><time>2026-01-10T00:15:29.000Z</time></trkpt>
        <trkpt lat="28.8434654" lon="104.2565919"><ele>584.45</ele><time>2026-01-10T00:15:41.000Z</time></trkpt>
        <trkpt lat="28.8435343" lon="104.2566441"><ele>583.44</ele><time>2026-01-10T00:16:01.000Z</time></trkpt>
        <trkpt lat="28.8436342" lon="104.2566314"><ele>580.97</ele><time>2026-01-10T00:16:15.000Z</time></trkpt>
        <trkpt lat="28.8437092" lon="104.2565555"><ele>578</ele><time>2026-01-10T00:16:27.000Z</time></trkpt>
        <trkpt lat="28.8437846" lon="104.2564658"><ele>576.22</ele><time>2026-01-10T00:16:39.000Z</time></trkpt>
        <trkpt lat="28.8438666" lon="104.2564736"><ele>574.81</ele><time>2026-01-10T00:16:49.000Z</time></trkpt>
        <trkpt lat="28.8438639" lon="104.2565613"><ele>573.35</ele><time>2026-01-10T00:16:59.000Z</time></trkpt>
        <trkpt lat="28.8438022" lon="104.2566652"><ele>572.19</ele><time>2026-01-10T00:17:09.000Z</time></trkpt>
        <trkpt lat="28.8437358" lon="104.2567652"><ele>571</ele><time>2026-01-10T00:17:17.000Z</time></trkpt>
        <trkpt lat="28.8436718" lon="104.2568686"><ele>569.33</ele><time>2026-01-10T00:17:27.000Z</time></trkpt>
        <trkpt lat="28.8436533" lon="104.2569802"><ele>567.29</ele><time>2026-01-10T00:17:35.000Z</time></trkpt>
        <trkpt lat="28.8436682" lon="104.2570866"><ele>565.92</ele><time>2026-01-10T00:17:43.000Z</time></trkpt>
        <trkpt lat="28.8436744" lon="104.2571931"><ele>565.28</ele><time>2026-01-10T00:17:51.000Z</time></trkpt>
        <trkpt lat="28.8436699" lon="104.2573084"><ele>564.54</ele><time>2026-01-10T00:18:03.000Z</time></trkpt>
        <trkpt lat="28.8436717" lon="104.2574198"><ele>563.53</ele><time>2026-01-10T00:18:11.000Z</time></trkpt>
        <trkpt lat="28.843713" lon="104.2575229"><ele>562.49</ele><time>2026-01-10T00:18:23.000Z</time></trkpt>
        <trkpt lat="28.8437839" lon="104.2576077"><ele>560.63</ele><time>2026-01-10T00:18:35.000Z</time></trkpt>
        <trkpt lat="28.8438654" lon="104.2576728"><ele>558.34</ele><time>2026-01-10T00:18:45.000Z</time></trkpt>
        <trkpt lat="28.8439612" lon="104.2577141"><ele>556.83</ele><time>2026-01-10T00:18:55.000Z</time></trkpt>
        <trkpt lat="28.8440669" lon="104.2577238"><ele>555.69</ele><time>2026-01-10T00:19:13.000Z</time></trkpt>
        <trkpt lat="28.844131" lon="104.257794"><ele>553.61</ele><time>2026-01-10T00:19:25.000Z</time></trkpt>
        <trkpt lat="28.8442038" lon="104.2578691"><ele>551.87</ele><time>2026-01-10T00:19:39.000Z</time></trkpt>
        <trkpt lat="28.8442734" lon="104.25794"><ele>551.81</ele><time>2026-01-10T00:19:47.000Z</time></trkpt>
        <trkpt lat="28.8443492" lon="104.2580276"><ele>551.23</ele><time>2026-01-10T00:19:57.000Z</time></trkpt>
        <trkpt lat="28.8444198" lon="104.2581019"><ele>550.23</ele><time>2026-01-10T00:20:07.000Z</time></trkpt>
        <trkpt lat="28.8444996" lon="104.2581599"><ele>549.09</ele><time>2026-01-10T00:20:17.000Z</time></trkpt>
        <trkpt lat="28.8445838" lon="104.2582203"><ele>547.86</ele><time>2026-01-10T00:20:27.000Z</time></trkpt>
        <trkpt lat="28.8446602" lon="104.2582874"><ele>547.16</ele><time>2026-01-10T00:20:37.000Z</time></trkpt>
        <trkpt lat="28.8447486" lon="104.2583197"><ele>546.56</ele><time>2026-01-10T00:20:45.000Z</time></trkpt>
        <trkpt lat="28.8448314" lon="104.2583705"><ele>545.49</ele><time>2026-01-10T00:20:55.000Z</time></trkpt>
        <trkpt lat="28.8449231" lon="104.258437"><ele>544.84</ele><time>2026-01-10T00:21:03.000Z</time></trkpt>
        <trkpt lat="28.8450136" lon="104.2584978"><ele>543.78</ele><time>2026-01-10T00:21:13.000Z</time></trkpt>
        <trkpt lat="28.8451059" lon="104.2585771"><ele>543.45</ele><time>2026-01-10T00:21:37.000Z</time></trkpt>
        <trkpt lat="28.8452024" lon="104.2586172"><ele>542.89</ele><time>2026-01-10T00:21:45.000Z</time></trkpt>
        <trkpt lat="28.8452967" lon="104.2586602"><ele>542.95</ele><time>2026-01-10T00:21:57.000Z</time></trkpt>
        <trkpt lat="28.8453818" lon="104.2587056"><ele>542.75</ele><time>2026-01-10T00:22:05.000Z</time></trkpt>
        <trkpt lat="28.8454579" lon="104.2587776"><ele>542.33</ele><time>2026-01-10T00:22:15.000Z</time></trkpt>
        <trkpt lat="28.845528" lon="104.2588587"><ele>542.25</ele><time>2026-01-10T00:22:27.000Z</time></trkpt>
        <trkpt lat="28.8455742" lon="104.2589588"><ele>542.09</ele><time>2026-01-10T00:22:35.000Z</time></trkpt>
        <trkpt lat="28.8456344" lon="104.2590456"><ele>543.67</ele><time>2026-01-10T00:22:45.000Z</time></trkpt>
        <trkpt lat="28.8456705" lon="104.2591476"><ele>544.49</ele><time>2026-01-10T00:22:59.000Z</time></trkpt>
        <trkpt lat="28.8456601" lon="104.2592587"><ele>545.93</ele><time>2026-01-10T00:23:11.000Z</time></trkpt>
        <trkpt lat="28.8456337" lon="104.2593658"><ele>546.84</ele><time>2026-01-10T00:23:21.000Z</time></trkpt>
        <trkpt lat="28.8455729" lon="104.2594601"><ele>548.65</ele><time>2026-01-10T00:23:31.000Z</time></trkpt>
        <trkpt lat="28.8455096" lon="104.2595445"><ele>549.42</ele><time>2026-01-10T00:23:39.000Z</time></trkpt>
        <trkpt lat="28.8454607" lon="104.2596433"><ele>548.34</ele><time>2026-01-10T00:23:49.000Z</time></trkpt>
        <trkpt lat="28.8454218" lon="104.2597518"><ele>548.15</ele><time>2026-01-10T00:23:59.000Z</time></trkpt>
        <trkpt lat="28.8454158" lon="104.2598668"><ele>548.57</ele><time>2026-01-10T00:24:07.000Z</time></trkpt>
        <trkpt lat="28.8454216" lon="104.2599885"><ele>549</ele><time>2026-01-10T00:24:17.000Z</time></trkpt>
        <trkpt lat="28.845429" lon="104.2601159"><ele>548.64</ele><time>2026-01-10T00:24:27.000Z</time></trkpt>
        <trkpt lat="28.8454349" lon="104.2602406"><ele>548.92</ele><time>2026-01-10T00:24:39.000Z</time></trkpt>
        <trkpt lat="28.845463" lon="104.2603508"><ele>549.48</ele><time>2026-01-10T00:24:47.000Z</time></trkpt>
        <trkpt lat="28.845499" lon="104.2604485"><ele>549.66</ele><time>2026-01-10T00:25:09.000Z</time></trkpt>
        <trkpt lat="28.8455269" lon="104.2605525"><ele>549.6</ele><time>2026-01-10T00:25:19.000Z</time></trkpt>
        <trkpt lat="28.8455952" lon="104.2606197"><ele>548.24</ele><time>2026-01-10T00:25:51.000Z</time></trkpt>
        <trkpt lat="28.8456777" lon="104.26067"><ele>546.23</ele><time>2026-01-10T00:26:07.000Z</time></trkpt>
        <trkpt lat="28.8457414" lon="104.260762"><ele>543.87</ele><time>2026-01-10T00:27:07.000Z</time></trkpt>
        <trkpt lat="28.8457971" lon="104.2608557"><ele>539.64</ele><time>2026-01-10T00:27:19.000Z</time></trkpt>
        <trkpt lat="28.8458795" lon="104.2609043"><ele>536.21</ele><time>2026-01-10T00:27:39.000Z</time></trkpt>
        <trkpt lat="28.8459441" lon="104.2609728"><ele>532.89</ele><time>2026-01-10T00:28:01.000Z</time></trkpt>
        <trkpt lat="28.845982" lon="104.261071"><ele>529.76</ele><time>2026-01-10T00:28:17.000Z</time></trkpt>
        <trkpt lat="28.8460422" lon="104.2611636"><ele>527.06</ele><time>2026-01-10T00:28:33.000Z</time></trkpt>
        <trkpt lat="28.8461077" lon="104.2612497"><ele>524.02</ele><time>2026-01-10T00:29:23.000Z</time></trkpt>
        <trkpt lat="28.8461437" lon="104.2611935"><ele>519.65</ele><time>2026-01-10T00:30:17.000Z</time></trkpt>
        <trkpt lat="28.8461909" lon="104.2610958"><ele>512.41</ele><time>2026-01-10T00:30:35.000Z</time></trkpt>
        <trkpt lat="28.8462765" lon="104.2610597"><ele>508.53</ele><time>2026-01-10T00:30:51.000Z</time></trkpt>
        <trkpt lat="28.8463748" lon="104.2610635"><ele>505.29</ele><time>2026-01-10T00:31:23.000Z</time></trkpt>
        <trkpt lat="28.8464656" lon="104.2611183"><ele>501.41</ele><time>2026-01-10T00:31:37.000Z</time></trkpt>
        <trkpt lat="28.8465244" lon="104.261212"><ele>496.99</ele><time>2026-01-10T00:32:03.000Z</time></trkpt>
        <trkpt lat="28.8465773" lon="104.2613089"><ele>493.49</ele><time>2026-01-10T00:32:51.000Z</time></trkpt>
        <trkpt lat="28.8466556" lon="104.2613549"><ele>488.04</ele><time>2026-01-10T00:33:05.000Z</time></trkpt>
        <trkpt lat="28.8467421" lon="104.2613907"><ele>484.89</ele><time>2026-01-10T00:33:21.000Z</time></trkpt>
        <trkpt lat="28.8468352" lon="104.2614137"><ele>481.65</ele><time>2026-01-10T00:33:43.000Z</time></trkpt>
        <trkpt lat="28.8468988" lon="104.2614802"><ele>478.16</ele><time>2026-01-10T00:34:09.000Z</time></trkpt>
        <trkpt lat="28.8469744" lon="104.2615589"><ele>474.69</ele><time>2026-01-10T00:34:37.000Z</time></trkpt>
        <trkpt lat="28.8469974" lon="104.2616731"><ele>474.13</ele><time>2026-01-10T00:34:57.000Z</time></trkpt>
        <trkpt lat="28.8470656" lon="104.2617047"><ele>472.88</ele><time>2026-01-10T00:35:11.000Z</time></trkpt>
        <trkpt lat="28.8471274" lon="104.2616422"><ele>472.43</ele><time>2026-01-10T00:35:41.000Z</time></trkpt>
        <trkpt lat="28.8471887" lon="104.2615511"><ele>469.69</ele><time>2026-01-10T00:36:07.000Z</time></trkpt>
        <trkpt lat="28.8472327" lon="104.2614401"><ele>465.34</ele><time>2026-01-10T00:36:19.000Z</time></trkpt>
        <trkpt lat="28.8473072" lon="104.2614319"><ele>462.25</ele><time>2026-01-10T00:37:01.000Z</time></trkpt>
        <trkpt lat="28.8473917" lon="104.2614645"><ele>458.28</ele><time>2026-01-10T00:37:35.000Z</time></trkpt>
        <trkpt lat="28.8474957" lon="104.2614561"><ele>456.33</ele><time>2026-01-10T00:39:49.000Z</time></trkpt>
        <trkpt lat="28.8474985" lon="104.2615131"><ele>458</ele><time>2026-01-10T00:40:07.000Z</time></trkpt>
        <trkpt lat="28.8475465" lon="104.2615942"><ele>459.3</ele><time>2026-01-10T00:40:47.000Z</time></trkpt>
        <trkpt lat="28.8475789" lon="104.2616923"><ele>458.28</ele><time>2026-01-10T00:41:15.000Z</time></trkpt>
        <trkpt lat="28.8476299" lon="104.2617891"><ele>458.64</ele><time>2026-01-10T00:41:35.000Z</time></trkpt>
        <trkpt lat="28.8477152" lon="104.2617979"><ele>459.13</ele><time>2026-01-10T00:41:51.000Z</time></trkpt>
        <trkpt lat="28.8478074" lon="104.2618137"><ele>461.84</ele><time>2026-01-10T00:42:15.000Z</time></trkpt>
        <trkpt lat="28.847837" lon="104.2618915"><ele>462.72</ele><time>2026-01-10T00:42:29.000Z</time></trkpt>
        <trkpt lat="28.8478792" lon="104.2619778"><ele>462.64</ele><time>2026-01-10T00:42:43.000Z</time></trkpt>
        <trkpt lat="28.8478753" lon="104.2620907"><ele>462.22</ele><time>2026-01-10T00:46:55.000Z</time></trkpt>
        <trkpt lat="28.8478435" lon="104.2619788"><ele>462.59</ele><time>2026-01-10T00:47:41.000Z</time></trkpt>
        <trkpt lat="28.8479081" lon="104.2620039"><ele>463.68</ele><time>2026-01-10T00:48:15.000Z</time></trkpt>
        <trkpt lat="28.8479805" lon="104.2620734"><ele>465.1</ele><time>2026-01-10T00:49:05.000Z</time></trkpt>
        <trkpt lat="28.8480328" lon="104.2621732"><ele>466.43</ele><time>2026-01-10T00:49:41.000Z</time></trkpt>
        <trkpt lat="28.8479455" lon="104.2622441"><ele>469.39</ele><time>2026-01-10T00:51:11.000Z</time></trkpt>
        <trkpt lat="28.8479345" lon="104.262356"><ele>469.7</ele><time>2026-01-10T00:52:07.000Z</time></trkpt>
        <trkpt lat="28.8479665" lon="104.2624553"><ele>468.66</ele><time>2026-01-10T00:53:01.000Z</time></trkpt>
        <trkpt lat="28.8480186" lon="104.2625404"><ele>469.21</ele><time>2026-01-10T00:53:41.000Z</time></trkpt>
        <trkpt lat="28.8479738" lon="104.2626175"><ele>469.21</ele><time>2026-01-10T00:57:13.000Z</time></trkpt>
        <trkpt lat="28.848004" lon="104.2627151"><ele>461.85</ele><time>2026-01-10T00:58:55.000Z</time></trkpt>
        <trkpt lat="28.8479807" lon="104.2628188"><ele>455.31</ele><time>2026-01-10T00:59:43.000Z</time></trkpt>
        <trkpt lat="28.8479599" lon="104.2629317"><ele>451.36</ele><time>2026-01-10T01:01:19.000Z</time></trkpt>
        <trkpt lat="28.8479325" lon="104.2630362"><ele>449.6</ele><time>2026-01-10T01:01:49.000Z</time></trkpt>
        <trkpt lat="28.8479283" lon="104.2631402"><ele>447.16</ele><time>2026-01-10T01:02:27.000Z</time></trkpt>
        <trkpt lat="28.8479339" lon="104.2632537"><ele>443.49</ele><time>2026-01-10T01:03:01.000Z</time></trkpt>
        <trkpt lat="28.8479776" lon="104.2633482"><ele>441.42</ele><time>2026-01-10T01:03:33.000Z</time></trkpt>
        <trkpt lat="28.8480115" lon="104.2634506"><ele>439.69</ele><time>2026-01-10T01:03:51.000Z</time></trkpt>
        <trkpt lat="28.8480082" lon="104.2635538"><ele>437.89</ele><time>2026-01-10T01:04:31.000Z</time></trkpt>
        <trkpt lat="28.8480678" lon="104.2635028"><ele>436.03</ele><time>2026-01-10T01:04:55.000Z</time></trkpt>
        <trkpt lat="28.8480188" lon="104.2635021"><ele>435.04</ele><time>2026-01-10T01:05:01.000Z</time></trkpt>
        <trkpt lat="28.8479046" lon="104.2635393"><ele>433.93</ele><time>2026-01-10T01:05:09.000Z</time></trkpt>
        <trkpt lat="28.8478682" lon="104.2636327"><ele>430.52</ele><time>2026-01-10T01:06:09.000Z</time></trkpt>
        <trkpt lat="28.8478196" lon="104.2637267"><ele>426.49</ele><time>2026-01-10T01:06:25.000Z</time></trkpt>
        <trkpt lat="28.8477371" lon="104.2637208"><ele>424.87</ele><time>2026-01-10T01:07:15.000Z</time></trkpt>
        <trkpt lat="28.8477197" lon="104.2636093"><ele>428.95</ele><time>2026-01-10T01:07:47.000Z</time></trkpt>
        <trkpt lat="28.8477475" lon="104.263625"><ele>433.68</ele><time>2026-01-10T01:07:55.000Z</time></trkpt>
        <trkpt lat="28.8476547" lon="104.2637002"><ele>436.07</ele><time>2026-01-10T01:08:03.000Z</time></trkpt>
        <trkpt lat="28.8476055" lon="104.2638102"><ele>437.91</ele><time>2026-01-10T01:08:19.000Z</time></trkpt>
        <trkpt lat="28.8476113" lon="104.2639309"><ele>440.07</ele><time>2026-01-10T01:08:31.000Z</time></trkpt>
        <trkpt lat="28.847644" lon="104.2640593"><ele>440.77</ele><time>2026-01-10T01:08:45.000Z</time></trkpt>
        <trkpt lat="28.8476498" lon="104.2641169"><ele>439.82</ele><time>2026-01-10T01:09:09.000Z</time></trkpt>
        <trkpt lat="28.8476564" lon="104.2642055"><ele>439.09</ele><time>2026-01-10T01:09:29.000Z</time></trkpt>
        <trkpt lat="28.8476925" lon="104.2642988"><ele>438.73</ele><time>2026-01-10T01:09:39.000Z</time></trkpt>
        <trkpt lat="28.8477039" lon="104.2644084"><ele>438.65</ele><time>2026-01-10T01:09:49.000Z</time></trkpt>
        <trkpt lat="28.8476701" lon="104.2645129"><ele>438.65</ele><time>2026-01-10T01:10:01.000Z</time></trkpt>
        <trkpt lat="28.8476146" lon="104.2646134"><ele>439.82</ele><time>2026-01-10T01:10:09.000Z</time></trkpt>
        <trkpt lat="28.8475641" lon="104.2647183"><ele>440.67</ele><time>2026-01-10T01:10:19.000Z</time></trkpt>
        <trkpt lat="28.8475191" lon="104.2648153"><ele>440.63</ele><time>2026-01-10T01:10:33.000Z</time></trkpt>
        <trkpt lat="28.8474919" lon="104.2649185"><ele>440.4</ele><time>2026-01-10T01:10:43.000Z</time></trkpt>
        <trkpt lat="28.8474842" lon="104.2650234"><ele>439.85</ele><time>2026-01-10T01:10:51.000Z</time></trkpt>
        <trkpt lat="28.8475004" lon="104.2651278"><ele>439.26</ele><time>2026-01-10T01:11:03.000Z</time></trkpt>
        <trkpt lat="28.8475279" lon="104.2652403"><ele>438.81</ele><time>2026-01-10T01:11:19.000Z</time></trkpt>
        <trkpt lat="28.8475099" lon="104.265348"><ele>438.65</ele><time>2026-01-10T01:11:39.000Z</time></trkpt>
        <trkpt lat="28.8474961" lon="104.2653839"><ele>439</ele><time>2026-01-10T01:11:45.000Z</time></trkpt>
        <trkpt lat="28.847426" lon="104.2654443"><ele>439.13</ele><time>2026-01-10T01:13:49.000Z</time></trkpt>
        <trkpt lat="28.8474258" lon="104.2655669"><ele>436.52</ele><time>2026-01-10T01:14:01.000Z</time></trkpt>
        <trkpt lat="28.8474625" lon="104.2656699"><ele>434.01</ele><time>2026-01-10T01:14:11.000Z</time></trkpt>
        <trkpt lat="28.8475023" lon="104.2657781"><ele>432.2</ele><time>2026-01-10T01:14:21.000Z</time></trkpt>
        <trkpt lat="28.8475478" lon="104.2658791"><ele>430.51</ele><time>2026-01-10T01:14:31.000Z</time></trkpt>
        <trkpt lat="28.847594" lon="104.2659829"><ele>429.48</ele><time>2026-01-10T01:14:43.000Z</time></trkpt>
        <trkpt lat="28.8476499" lon="104.2660942"><ele>428.28</ele><time>2026-01-10T01:14:53.000Z</time></trkpt>
        <trkpt lat="28.8476862" lon="104.2661982"><ele>426.24</ele><time>2026-01-10T01:15:01.000Z</time></trkpt>
        <trkpt lat="28.8477341" lon="104.266288"><ele>423.66</ele><time>2026-01-10T01:15:13.000Z</time></trkpt>
        <trkpt lat="28.8477763" lon="104.2663785"><ele>421.3</ele><time>2026-01-10T01:15:23.000Z</time></trkpt>
        <trkpt lat="28.8478231" lon="104.2664668"><ele>418.86</ele><time>2026-01-10T01:15:33.000Z</time></trkpt>
        <trkpt lat="28.8479" lon="104.2665339"><ele>417.42</ele><time>2026-01-10T01:15:43.000Z</time></trkpt>
        <trkpt lat="28.847984" lon="104.2666053"><ele>415.05</ele><time>2026-01-10T01:15:59.000Z</time></trkpt>
        <trkpt lat="28.8480506" lon="104.2666831"><ele>413.25</ele><time>2026-01-10T01:17:19.000Z</time></trkpt>
        <trkpt lat="28.8481613" lon="104.2666967"><ele>411.41</ele><time>2026-01-10T01:17:37.000Z</time></trkpt>
        <trkpt lat="28.8482474" lon="104.2667374"><ele>410.04</ele><time>2026-01-10T01:17:49.000Z</time></trkpt>
        <trkpt lat="28.8483171" lon="104.2668046"><ele>409.58</ele><time>2026-01-10T01:18:05.000Z</time></trkpt>
        <trkpt lat="28.8483834" lon="104.2668981"><ele>409.43</ele><time>2026-01-10T01:18:15.000Z</time></trkpt>
        <trkpt lat="28.8483599" lon="104.266994"><ele>408.88</ele><time>2026-01-10T01:18:25.000Z</time></trkpt>
        <trkpt lat="28.8483017" lon="104.26709"><ele>408.42</ele><time>2026-01-10T01:18:41.000Z</time></trkpt>
        <trkpt lat="28.8482561" lon="104.2672027"><ele>407.32</ele><time>2026-01-10T01:18:51.000Z</time></trkpt>
        <trkpt lat="28.8482559" lon="104.2673116"><ele>404.52</ele><time>2026-01-10T01:19:01.000Z</time></trkpt>
        <trkpt lat="28.8483072" lon="104.2674061"><ele>401.23</ele><time>2026-01-10T01:19:15.000Z</time></trkpt>
        <trkpt lat="28.8483695" lon="104.2674979"><ele>397.55</ele><time>2026-01-10T01:19:33.000Z</time></trkpt>
        <trkpt lat="28.8484287" lon="104.2675924"><ele>393.69</ele><time>2026-01-10T01:19:43.000Z</time></trkpt>
        <trkpt lat="28.8484748" lon="104.2676985"><ele>391.81</ele><time>2026-01-10T01:19:55.000Z</time></trkpt>
        <trkpt lat="28.8485217" lon="104.2678088"><ele>390.1</ele><time>2026-01-10T01:20:07.000Z</time></trkpt>
        <trkpt lat="28.8485641" lon="104.267911"><ele>387.82</ele><time>2026-01-10T01:20:19.000Z</time></trkpt>
        <trkpt lat="28.8485958" lon="104.2680197"><ele>385.38</ele><time>2026-01-10T01:20:43.000Z</time></trkpt>
        <trkpt lat="28.848648" lon="104.2681284"><ele>383.07</ele><time>2026-01-10T01:20:57.000Z</time></trkpt>
        <trkpt lat="28.8486845" lon="104.2682417"><ele>381.47</ele><time>2026-01-10T01:21:05.000Z</time></trkpt>
        <trkpt lat="28.8486661" lon="104.2683494"><ele>380.32</ele><time>2026-01-10T01:21:19.000Z</time></trkpt>
        <trkpt lat="28.8486096" lon="104.2684426"><ele>379.08</ele><time>2026-01-10T01:21:59.000Z</time></trkpt>
        <trkpt lat="28.848527" lon="104.2685028"><ele>378.21</ele><time>2026-01-10T01:22:07.000Z</time></trkpt>
        <trkpt lat="28.8484505" lon="104.2685822"><ele>378.02</ele><time>2026-01-10T01:22:17.000Z</time></trkpt>
        <trkpt lat="28.8484019" lon="104.268676"><ele>378.01</ele><time>2026-01-10T01:22:27.000Z</time></trkpt>
        <trkpt lat="28.8483583" lon="104.2687937"><ele>377.98</ele><time>2026-01-10T01:22:55.000Z</time></trkpt>
        <trkpt lat="28.8483406" lon="104.2689192"><ele>378.06</ele><time>2026-01-10T01:23:01.000Z</time></trkpt>
        <trkpt lat="28.8483248" lon="104.2689963"><ele>377.82</ele><time>2026-01-10T01:23:11.000Z</time></trkpt>
        <trkpt lat="28.8483088" lon="104.2690939"><ele>377.81</ele><time>2026-01-10T01:23:33.000Z</time></trkpt>
        <trkpt lat="28.8483074" lon="104.2692087"><ele>375.2</ele><time>2026-01-10T01:23:47.000Z</time></trkpt>
        <trkpt lat="28.8483487" lon="104.2693066"><ele>372.6</ele><time>2026-01-10T01:23:57.000Z</time></trkpt>
        <trkpt lat="28.8484347" lon="104.2693542"><ele>369.24</ele><time>2026-01-10T01:24:07.000Z</time></trkpt>
        <trkpt lat="28.8485411" lon="104.2693914"><ele>366.19</ele><time>2026-01-10T01:24:15.000Z</time></trkpt>
        <trkpt lat="28.8486215" lon="104.269462"><ele>363.74</ele><time>2026-01-10T01:24:25.000Z</time></trkpt>
        <trkpt lat="28.8486579" lon="104.2695716"><ele>362.08</ele><time>2026-01-10T01:24:43.000Z</time></trkpt>
        <trkpt lat="28.8486765" lon="104.2696841"><ele>360.24</ele><time>2026-01-10T01:24:53.000Z</time></trkpt>
        <trkpt lat="28.8486838" lon="104.2697989"><ele>358.6</ele><time>2026-01-10T01:25:01.000Z</time></trkpt>
        <trkpt lat="28.8487003" lon="104.2699181"><ele>358.96</ele><time>2026-01-10T01:25:13.000Z</time></trkpt>
        <trkpt lat="28.8486981" lon="104.2700387"><ele>359.36</ele><time>2026-01-10T01:25:23.000Z</time></trkpt>
        <trkpt lat="28.8487325" lon="104.2701447"><ele>360.61</ele><time>2026-01-10T01:25:37.000Z</time></trkpt>
        <trkpt lat="28.8487936" lon="104.2702352"><ele>363.32</ele><time>2026-01-10T01:25:49.000Z</time></trkpt>
        <trkpt lat="28.8488673" lon="104.2703028"><ele>365.81</ele><time>2026-01-10T01:25:57.000Z</time></trkpt>
        <trkpt lat="28.8489477" lon="104.270369"><ele>368.63</ele><time>2026-01-10T01:26:13.000Z</time></trkpt>
        <trkpt lat="28.8490094" lon="104.2704623"><ele>371.02</ele><time>2026-01-10T01:26:29.000Z</time></trkpt>
        <trkpt lat="28.8490325" lon="104.2705647"><ele>374.02</ele><time>2026-01-10T01:26:37.000Z</time></trkpt>
        <trkpt lat="28.8490242" lon="104.2706687"><ele>376.31</ele><time>2026-01-10T01:26:49.000Z</time></trkpt>
        <trkpt lat="28.8490234" lon="104.2707852"><ele>378.96</ele><time>2026-01-10T01:27:01.000Z</time></trkpt>
        <trkpt lat="28.8490239" lon="104.2708973"><ele>380.56</ele><time>2026-01-10T01:27:17.000Z</time></trkpt>
        <trkpt lat="28.8489898" lon="104.2710029"><ele>381.25</ele><time>2026-01-10T01:27:37.000Z</time></trkpt>
        <trkpt lat="28.8489605" lon="104.2711061"><ele>383.12</ele><time>2026-01-10T01:27:49.000Z</time></trkpt>
        <trkpt lat="28.8489311" lon="104.271206"><ele>385.73</ele><time>2026-01-10T01:28:01.000Z</time></trkpt>
        <trkpt lat="28.848965" lon="104.2713019"><ele>388.31</ele><time>2026-01-10T01:28:15.000Z</time></trkpt>
        <trkpt lat="28.8490499" lon="104.2713399"><ele>390.48</ele><time>2026-01-10T01:28:29.000Z</time></trkpt>
        <trkpt lat="28.8491523" lon="104.2713644"><ele>392.18</ele><time>2026-01-10T01:28:47.000Z</time></trkpt>
        <trkpt lat="28.8492413" lon="104.2714089"><ele>393.69</ele><time>2026-01-10T01:28:59.000Z</time></trkpt>
        <trkpt lat="28.8493133" lon="104.2714854"><ele>394.98</ele><time>2026-01-10T01:29:11.000Z</time></trkpt>
        <trkpt lat="28.8494086" lon="104.2715401"><ele>395.98</ele><time>2026-01-10T01:29:35.000Z</time></trkpt>
        <trkpt lat="28.8495019" lon="104.2715875"><ele>396.6</ele><time>2026-01-10T01:29:47.000Z</time></trkpt>
        <trkpt lat="28.8495767" lon="104.2716648"><ele>396.96</ele><time>2026-01-10T01:30:01.000Z</time></trkpt>
        <trkpt lat="28.8496407" lon="104.2717537"><ele>397.18</ele><time>2026-01-10T01:30:13.000Z</time></trkpt>
        <trkpt lat="28.8496736" lon="104.2718541"><ele>398.47</ele><time>2026-01-10T01:30:23.000Z</time></trkpt>
        <trkpt lat="28.8496822" lon="104.2719718"><ele>400.85</ele><time>2026-01-10T01:30:33.000Z</time></trkpt>
        <trkpt lat="28.8496735" lon="104.2720836"><ele>403.64</ele><time>2026-01-10T01:30:41.000Z</time></trkpt>
        <trkpt lat="28.8496895" lon="104.2721978"><ele>406.16</ele><time>2026-01-10T01:30:51.000Z</time></trkpt>
        <trkpt lat="28.8497544" lon="104.2722633"><ele>407.4</ele><time>2026-01-10T01:30:57.000Z</time></trkpt>
        <trkpt lat="28.849832" lon="104.2723278"><ele>408.78</ele><time>2026-01-10T01:31:07.000Z</time></trkpt>
        <trkpt lat="28.8499291" lon="104.2723771"><ele>410.51</ele><time>2026-01-10T01:31:21.000Z</time></trkpt>
        <trkpt lat="28.8500201" lon="104.2724206"><ele>412.41</ele><time>2026-01-10T01:31:31.000Z</time></trkpt>
        <trkpt lat="28.850092" lon="104.2725009"><ele>414.36</ele><time>2026-01-10T01:31:43.000Z</time></trkpt>
        <trkpt lat="28.8501439" lon="104.272593"><ele>416.73</ele><time>2026-01-10T01:31:53.000Z</time></trkpt>
        <trkpt lat="28.8501943" lon="104.2726919"><ele>418.67</ele><time>2026-01-10T01:32:09.000Z</time></trkpt>
        <trkpt lat="28.8502725" lon="104.2727584"><ele>421.15</ele><time>2026-01-10T01:32:19.000Z</time></trkpt>
        <trkpt lat="28.8503636" lon="104.2727854"><ele>423.11</ele><time>2026-01-10T01:32:29.000Z</time></trkpt>
        <trkpt lat="28.8504045" lon="104.272793"><ele>423.89</ele><time>2026-01-10T01:32:39.000Z</time></trkpt>
        <trkpt lat="28.8504533" lon="104.2727208"><ele>424.56</ele><time>2026-01-10T01:32:53.000Z</time></trkpt>
        <trkpt lat="28.8505047" lon="104.2726105"><ele>424.24</ele><time>2026-01-10T01:33:05.000Z</time></trkpt>
        <trkpt lat="28.8505596" lon="104.2725123"><ele>423.97</ele><time>2026-01-10T01:33:13.000Z</time></trkpt>
        <trkpt lat="28.8506348" lon="104.2724417"><ele>423.69</ele><time>2026-01-10T01:33:25.000Z</time></trkpt>
        <trkpt lat="28.8507264" lon="104.2723972"><ele>423.08</ele><time>2026-01-10T01:33:33.000Z</time></trkpt>
        <trkpt lat="28.8508145" lon="104.2723479"><ele>422.04</ele><time>2026-01-10T01:33:41.000Z</time></trkpt>
        <trkpt lat="28.8509006" lon="104.272281"><ele>421.11</ele><time>2026-01-10T01:33:55.000Z</time></trkpt>
        <trkpt lat="28.8509762" lon="104.2722126"><ele>419.28</ele><time>2026-01-10T01:34:03.000Z</time></trkpt>
        <trkpt lat="28.8510705" lon="104.2721787"><ele>417.75</ele><time>2026-01-10T01:34:11.000Z</time></trkpt>
        <trkpt lat="28.8511728" lon="104.2721302"><ele>416.79</ele><time>2026-01-10T01:34:21.000Z</time></trkpt>
        <trkpt lat="28.8512425" lon="104.2720497"><ele>416.84</ele><time>2026-01-10T01:34:29.000Z</time></trkpt>
        <trkpt lat="28.8513054" lon="104.2719717"><ele>416.43</ele><time>2026-01-10T01:34:39.000Z</time></trkpt>
        <trkpt lat="28.8513896" lon="104.2719137"><ele>416.01</ele><time>2026-01-10T01:34:53.000Z</time></trkpt>
        <trkpt lat="28.8514812" lon="104.2718585"><ele>416.89</ele><time>2026-01-10T01:34:59.000Z</time></trkpt>
        <trkpt lat="28.8515746" lon="104.2718084"><ele>417.62</ele><time>2026-01-10T01:35:09.000Z</time></trkpt>
        <trkpt lat="28.8516709" lon="104.2717554"><ele>419.6</ele><time>2026-01-10T01:35:19.000Z</time></trkpt>
        <trkpt lat="28.8517675" lon="104.2717169"><ele>421.14</ele><time>2026-01-10T01:35:27.000Z</time></trkpt>
        <trkpt lat="28.8518543" lon="104.2716899"><ele>421.7</ele><time>2026-01-10T01:35:45.000Z</time></trkpt>
        <trkpt lat="28.8519293" lon="104.2716258"><ele>421.26</ele><time>2026-01-10T01:36:07.000Z</time></trkpt>
        <trkpt lat="28.8520025" lon="104.2715547"><ele>421.25</ele><time>2026-01-10T01:36:15.000Z</time></trkpt>
        <trkpt lat="28.8520757" lon="104.2714869"><ele>420.86</ele><time>2026-01-10T01:36:27.000Z</time></trkpt>
        <trkpt lat="28.8521715" lon="104.2714617"><ele>420.59</ele><time>2026-01-10T01:36:47.000Z</time></trkpt>
        <trkpt lat="28.852267" lon="104.2714112"><ele>420.41</ele><time>2026-01-10T01:36:57.000Z</time></trkpt>
        <trkpt lat="28.852326" lon="104.2713205"><ele>420.61</ele><time>2026-01-10T01:37:07.000Z</time></trkpt>
        <trkpt lat="28.8523759" lon="104.2712149"><ele>420.77</ele><time>2026-01-10T01:37:47.000Z</time></trkpt>
        <trkpt lat="28.8524206" lon="104.2711067"><ele>420.96</ele><time>2026-01-10T01:37:57.000Z</time></trkpt>
        <trkpt lat="28.8524657" lon="104.2709945"><ele>421.5</ele><time>2026-01-10T01:38:07.000Z</time></trkpt>
        <trkpt lat="28.8524946" lon="104.2708849"><ele>422.57</ele><time>2026-01-10T01:38:15.000Z</time></trkpt>
        <trkpt lat="28.8525154" lon="104.2707758"><ele>423.11</ele><time>2026-01-10T01:38:23.000Z</time></trkpt>
        <trkpt lat="28.8525741" lon="104.2707015"><ele>423.48</ele><time>2026-01-10T01:38:39.000Z</time></trkpt>
        <trkpt lat="28.8526173" lon="104.2706111"><ele>423.66</ele><time>2026-01-10T01:38:57.000Z</time></trkpt>
        <trkpt lat="28.8527032" lon="104.2705492"><ele>423.78</ele><time>2026-01-10T01:39:07.000Z</time></trkpt>
        <trkpt lat="28.8527805" lon="104.2706026"><ele>422.45</ele><time>2026-01-10T01:39:17.000Z</time></trkpt>
        <trkpt lat="28.8528312" lon="104.2707203"><ele>420.52</ele><time>2026-01-10T01:39:27.000Z</time></trkpt>
        <trkpt lat="28.8528836" lon="104.2708282"><ele>418.12</ele><time>2026-01-10T01:39:35.000Z</time></trkpt>
        <trkpt lat="28.8529432" lon="104.2709291"><ele>416.94</ele><time>2026-01-10T01:39:45.000Z</time></trkpt>
        <trkpt lat="28.853016" lon="104.2710058"><ele>415.8</ele><time>2026-01-10T01:39:55.000Z</time></trkpt>
        <trkpt lat="28.8531001" lon="104.2710734"><ele>414.29</ele><time>2026-01-10T01:40:03.000Z</time></trkpt>
        <trkpt lat="28.8531809" lon="104.2711323"><ele>413.2</ele><time>2026-01-10T01:40:11.000Z</time></trkpt>
        <trkpt lat="28.8532687" lon="104.2711847"><ele>412.5</ele><time>2026-01-10T01:40:21.000Z</time></trkpt>
        <trkpt lat="28.8533572" lon="104.2712198"><ele>412.25</ele><time>2026-01-10T01:40:37.000Z</time></trkpt>
        <trkpt lat="28.8534491" lon="104.2711823"><ele>411.83</ele><time>2026-01-10T01:40:47.000Z</time></trkpt>
        <trkpt lat="28.8535413" lon="104.2711964"><ele>411.9</ele><time>2026-01-10T01:41:09.000Z</time></trkpt>
        <trkpt lat="28.853643" lon="104.271216"><ele>414.18</ele><time>2026-01-10T01:41:19.000Z</time></trkpt>
        <trkpt lat="28.8537523" lon="104.2712344"><ele>415.76</ele><time>2026-01-10T01:41:27.000Z</time></trkpt>
        <trkpt lat="28.8538436" lon="104.2712935"><ele>415.3</ele><time>2026-01-10T01:41:37.000Z</time></trkpt>
        <trkpt lat="28.8539252" lon="104.2713513"><ele>414.09</ele><time>2026-01-10T01:41:45.000Z</time></trkpt>
        <trkpt lat="28.8539946" lon="104.2714293"><ele>412.7</ele><time>2026-01-10T01:41:53.000Z</time></trkpt>
        <trkpt lat="28.854057" lon="104.271515"><ele>411.2</ele><time>2026-01-10T01:42:03.000Z</time></trkpt>
        <trkpt lat="28.8541547" lon="104.2715537"><ele>409.3</ele><time>2026-01-10T01:42:13.000Z</time></trkpt>
        <trkpt lat="28.8542483" lon="104.2715824"><ele>407.26</ele><time>2026-01-10T01:42:21.000Z</time></trkpt>
        <trkpt lat="28.8543573" lon="104.2715686"><ele>406.06</ele><time>2026-01-10T01:42:31.000Z</time></trkpt>
        <trkpt lat="28.8544493" lon="104.2715994"><ele>405.2</ele><time>2026-01-10T01:42:41.000Z</time></trkpt>
        <trkpt lat="28.8545234" lon="104.271664"><ele>404.57</ele><time>2026-01-10T01:42:49.000Z</time></trkpt>
        <trkpt lat="28.8545623" lon="104.2717601"><ele>404.28</ele><time>2026-01-10T01:42:59.000Z</time></trkpt>
        <trkpt lat="28.8545778" lon="104.2718758"><ele>405.38</ele><time>2026-01-10T01:43:09.000Z</time></trkpt>
        <trkpt lat="28.8545921" lon="104.2719965"><ele>407.09</ele><time>2026-01-10T01:43:19.000Z</time></trkpt>
        <trkpt lat="28.8546054" lon="104.272116"><ele>408.64</ele><time>2026-01-10T01:43:31.000Z</time></trkpt>
        <trkpt lat="28.8546443" lon="104.2722161"><ele>410.76</ele><time>2026-01-10T01:43:43.000Z</time></trkpt>
        <trkpt lat="28.8546883" lon="104.2723147"><ele>413.04</ele><time>2026-01-10T01:43:53.000Z</time></trkpt>
        <trkpt lat="28.8547226" lon="104.2724124"><ele>414.6</ele><time>2026-01-10T01:44:01.000Z</time></trkpt>
        <trkpt lat="28.85476" lon="104.2725057"><ele>415.9</ele><time>2026-01-10T01:44:11.000Z</time></trkpt>
        <trkpt lat="28.8548437" lon="104.2725389"><ele>416.31</ele><time>2026-01-10T01:44:21.000Z</time></trkpt>
        <trkpt lat="28.8549249" lon="104.2725881"><ele>416.31</ele><time>2026-01-10T01:44:31.000Z</time></trkpt>
        <trkpt lat="28.8549831" lon="104.2726731"><ele>415.72</ele><time>2026-01-10T01:44:41.000Z</time></trkpt>
        <trkpt lat="28.8550259" lon="104.272779"><ele>415.01</ele><time>2026-01-10T01:44:51.000Z</time></trkpt>
        <trkpt lat="28.8550769" lon="104.272869"><ele>414.59</ele><time>2026-01-10T01:44:57.000Z</time></trkpt>
        <trkpt lat="28.8553282" lon="104.2731577"><ele>413.98</ele><time>2026-01-10T01:45:05.000Z</time></trkpt>
        <trkpt lat="28.8553527" lon="104.2731483"><ele>413.57</ele><time>2026-01-10T01:45:07.000Z</time></trkpt>
        <trkpt lat="28.8552622" lon="104.273044"><ele>413.7</ele><time>2026-01-10T01:45:11.000Z</time></trkpt>
        <trkpt lat="28.855139" lon="104.2729574"><ele>413.79</ele><time>2026-01-10T01:45:15.000Z</time></trkpt>
        <trkpt lat="28.8550526" lon="104.2729957"><ele>414.05</ele><time>2026-01-10T01:45:25.000Z</time></trkpt>
        <trkpt lat="28.8550398" lon="104.2730976"><ele>412.39</ele><time>2026-01-10T01:45:35.000Z</time></trkpt>
        <trkpt lat="28.8550421" lon="104.273216"><ele>410.24</ele><time>2026-01-10T01:45:45.000Z</time></trkpt>
        <trkpt lat="28.8550301" lon="104.2733291"><ele>407.58</ele><time>2026-01-10T01:45:55.000Z</time></trkpt>
        <trkpt lat="28.8549952" lon="104.2734363"><ele>406.53</ele><time>2026-01-10T01:46:03.000Z</time></trkpt>
        <trkpt lat="28.854933" lon="104.2735346"><ele>405.6</ele><time>2026-01-10T01:46:13.000Z</time></trkpt>
        <trkpt lat="28.8548571" lon="104.2736093"><ele>404.71</ele><time>2026-01-10T01:46:21.000Z</time></trkpt>
        <trkpt lat="28.8549068" lon="104.2735968"><ele>403.52</ele><time>2026-01-10T01:46:57.000Z</time></trkpt>
        <trkpt lat="28.8554934" lon="104.2732872"><ele>401.94</ele><time>2026-01-10T01:47:05.000Z</time></trkpt>
        <trkpt lat="28.8556448" lon="104.2732208"><ele>401.24</ele><time>2026-01-10T01:47:11.000Z</time></trkpt>
        <trkpt lat="28.8554582" lon="104.2733408"><ele>400.3</ele><time>2026-01-10T01:47:13.000Z</time></trkpt>
        <trkpt lat="28.8552618" lon="104.2734417"><ele>399.44</ele><time>2026-01-10T01:47:15.000Z</time></trkpt>
        <trkpt lat="28.8550272" lon="104.2735366"><ele>399.24</ele><time>2026-01-10T01:47:17.000Z</time></trkpt>
        <trkpt lat="28.8548837" lon="104.2735815"><ele>399.56</ele><time>2026-01-10T01:47:19.000Z</time></trkpt>
        <trkpt lat="28.8548414" lon="104.273594"><ele>399.74</ele><time>2026-01-10T01:47:23.000Z</time></trkpt>
        <trkpt lat="28.8550238" lon="104.2734202"><ele>399.85</ele><time>2026-01-10T01:48:27.000Z</time></trkpt>
        <trkpt lat="28.8552493" lon="104.273111"><ele>401.02</ele><time>2026-01-10T01:48:29.000Z</time></trkpt>
        <trkpt lat="28.8552837" lon="104.2728675"><ele>402.03</ele><time>2026-01-10T01:48:31.000Z</time></trkpt>
        <trkpt lat="28.8552088" lon="104.2729141"><ele>402.87</ele><time>2026-01-10T01:48:35.000Z</time></trkpt>
        <trkpt lat="28.8550859" lon="104.2731877"><ele>403.07</ele><time>2026-01-10T01:48:37.000Z</time></trkpt>
        <trkpt lat="28.8550005" lon="104.2733704"><ele>402.54</ele><time>2026-01-10T01:48:39.000Z</time></trkpt>
        <trkpt lat="28.8549212" lon="104.2734971"><ele>402.78</ele><time>2026-01-10T01:49:17.000Z</time></trkpt>
        <trkpt lat="28.8549755" lon="104.2733381"><ele>401.67</ele><time>2026-01-10T01:50:53.000Z</time></trkpt>
        <trkpt lat="28.855027" lon="104.2732414"><ele>400.93</ele><time>2026-01-10T01:50:55.000Z</time></trkpt>
        <trkpt lat="28.8550795" lon="104.2731448"><ele>400.44</ele><time>2026-01-10T01:50:59.000Z</time></trkpt>
        <trkpt lat="28.8550583" lon="104.2732036"><ele>400.4</ele><time>2026-01-10T01:51:37.000Z</time></trkpt>
        <trkpt lat="28.8549826" lon="104.273341"><ele>402.1</ele><time>2026-01-10T01:51:41.000Z</time></trkpt>
        <trkpt lat="28.8548969" lon="104.2735037"><ele>402.95</ele><time>2026-01-10T01:51:45.000Z</time></trkpt>
        <trkpt lat="28.8548147" lon="104.2736405"><ele>403.63</ele><time>2026-01-10T01:51:47.000Z</time></trkpt>
        <trkpt lat="28.8547471" lon="104.2737566"><ele>403.95</ele><time>2026-01-10T01:51:49.000Z</time></trkpt>
        <trkpt lat="28.8546907" lon="104.2738496"><ele>404.31</ele><time>2026-01-10T01:51:55.000Z</time></trkpt>
        <trkpt lat="28.8546907" lon="104.2738496"><ele>404.31</ele><time>2026-01-10T01:51:59.000Z</time></trkpt>
      </trkseg>
  </trk>
</gpx>